Observation data for Aiken on 02/14/2018      Previous  Date  Next       Current Mesonet Observations  Soil Data  Daily Summary Page  Observations in Plain Language
KAI1 140600Z 20008KT 06/02 A3023 RMK A01 T00610021  RH  075%=      5-min Rain = 0
KAI1 140601Z 20007KT 06/02 A3023 RMK A01 T00610021  RH  076%=      5-min Rain = 0
KAI1 140602Z 20007KT 06/02 A3023 RMK A01 T00610022  RH  076%=      5-min Rain = 0
KAI1 140603Z 20007KT 06/02 A3024 RMK A01 T00620023  RH  076%=      5-min Rain = 0
KAI1 140604Z 21007KT 06/02 A3024 RMK A01 T00620023  RH  076%=      5-min Rain = 0
KAI1 140605Z 21007KT 06/02 A3024 RMK A01 T00620023  RH  076%=      5-min Rain = 0
KAI1 140606Z 20008KT 06/02 A3024 RMK A01 T00620023  RH  076%=      5-min Rain = 0
KAI1 140607Z 21008KT 06/02 A3023 RMK A01 T00610022  RH  076%=      5-min Rain = 0
KAI1 140608Z 21007KT 06/02 A3023 RMK A01 T00600022  RH  076%=      5-min Rain = 0
KAI1 140609Z 21007KT 06/02 A3023 RMK A01 T00600021  RH  076%=      5-min Rain = 0
KAI1 140610Z 21006KT 06/02 A3023 RMK A01 T00580020  RH  076%=      5-min Rain = 0
KAI1 140611Z 21006KT 06/02 A3023 RMK A01 T00570019  RH  076%=      5-min Rain = 0
KAI1 140612Z 21005KT 06/02 A3023 RMK A01 T00560019  RH  077%=      5-min Rain = 0
KAI1 140613Z 21005KT 06/02 A3023 RMK A01 T00550018  RH  077%=      5-min Rain = 0
KAI1 140614Z 21005KT 05/02 A3023 RMK A01 T00540017  RH  077%=      5-min Rain = 0
KAI1 140615Z 21005KT 05/02 A3023 RMK A01 T00530016  RH  077%=      5-min Rain = 0
KAI1 140616Z 21005KT 05/02 A3023 RMK A01 T00520016  RH  078%=      5-min Rain = 0
KAI1 140617Z 21005KT 05/02 A3023 RMK A01 T00520016  RH  078%=      5-min Rain = 0
KAI1 140618Z 21005KT 05/02 A3023 RMK A01 T00510016  RH  078%=      5-min Rain = 0
KAI1 140619Z 21004KT 05/02 A3023 RMK A01 T00500015  RH  078%=      5-min Rain = 0
KAI1 140620Z 21004KT 05/02 A3023 RMK A01 T00500015  RH  078%=      5-min Rain = 0
KAI1 140621Z 21004KT 05/01 A3023 RMK A01 T00490014  RH  078%=      5-min Rain = 0
KAI1 140622Z 20005KT 05/01 A3023 RMK A01 T00480014  RH  078%=      5-min Rain = 0
KAI1 140623Z 20005KT 05/01 A3023 RMK A01 T00480014  RH  079%=      5-min Rain = 0
KAI1 140624Z 20006KT 05/02 A3023 RMK A01 T00480015  RH  079%=      5-min Rain = 0
KAI1 140625Z 20006KT 05/02 A3023 RMK A01 T00480015  RH  079%=      5-min Rain = 0
KAI1 140626Z 20006KT 05/02 A3023 RMK A01 T00490017  RH  080%=      5-min Rain = 0
KAI1 140627Z 20006KT 05/02 A3023 RMK A01 T00500018  RH  079%=      5-min Rain = 0
KAI1 140628Z 20006KT 05/02 A3023 RMK A01 T00510018  RH  079%=      5-min Rain = 0
KAI1 140629Z 20005KT 05/02 A3023 RMK A01 T00520019  RH  079%=      5-min Rain = 0
KAI1 140630Z 20006KT 05/02 A3023 RMK A01 T00540021  RH  079%=      5-min Rain = 0
KAI1 140631Z 20006KT 06/02 A3023 RMK A01 T00560022  RH  079%=      5-min Rain = 0
KAI1 140632Z 20006KT 06/02 A3023 RMK A01 T00560022  RH  079%=      5-min Rain = 0
KAI1 140633Z 20006KT 06/02 A3023 RMK A01 T00570022  RH  078%=      5-min Rain = 0
KAI1 140634Z 20005KT 06/02 A3023 RMK A01 T00580023  RH  078%=      5-min Rain = 0
KAI1 140635Z 20005KT 06/02 A3023 RMK A01 T00590024  RH  078%=      5-min Rain = 0
KAI1 140636Z 20005KT 06/02 A3023 RMK A01 T00590023  RH  078%=      5-min Rain = 0
KAI1 140637Z 20005KT 06/02 A3023 RMK A01 T00590024  RH  078%=      5-min Rain = 0
KAI1 140638Z 19005KT 06/02 A3023 RMK A01 T00600024  RH  078%=      5-min Rain = 0
KAI1 140639Z 19005KT 06/02 A3023 RMK A01 T00600024  RH  078%=      5-min Rain = 0
KAI1 140640Z 19005KT 06/02 A3023 RMK A01 T00600024  RH  078%=      5-min Rain = 0
KAI1 140641Z 19006KT 06/02 A3023 RMK A01 T00600023  RH  077%=      5-min Rain = 0
KAI1 140642Z 20006KT 06/02 A3023 RMK A01 T00600024  RH  077%=      5-min Rain = 0
KAI1 140643Z 19006KT 06/02 A3023 RMK A01 T00610024  RH  077%=      5-min Rain = 0
KAI1 140644Z 19006KT 06/02 A3023 RMK A01 T00610023  RH  077%=      5-min Rain = 0
KAI1 140645Z 20006KT 06/02 A3023 RMK A01 T00610023  RH  077%=      5-min Rain = 0
KAI1 140646Z 20006KT 06/02 A3023 RMK A01 T00610023  RH  077%=      5-min Rain = 0
KAI1 140647Z 20006KT 06/02 A3023 RMK A01 T00610023  RH  076%=      5-min Rain = 0
KAI1 140648Z 20005KT 06/02 A3023 RMK A01 T00610023  RH  077%=      5-min Rain = 0
KAI1 140649Z 20005KT 06/02 A3023 RMK A01 T00610023  RH  077%=      5-min Rain = 0
KAI1 140650Z 20005KT 06/02 A3023 RMK A01 T00600022  RH  077%=      5-min Rain = 0
KAI1 140651Z 20005KT 06/02 A3023 RMK A01 T00590022  RH  077%=      5-min Rain = 0
KAI1 140652Z 20005KT 06/02 A3023 RMK A01 T00590023  RH  077%=      5-min Rain = 0
KAI1 140653Z 20005KT 06/02 A3023 RMK A01 T00590022  RH  077%=      5-min Rain = 0
KAI1 140654Z 19005KT 06/02 A3022 RMK A01 T00590023  RH  078%=      5-min Rain = 0
KAI1 140655Z 19005KT 06/02 A3022 RMK A01 T00590022  RH  078%=      5-min Rain = 0
KAI1 140656Z 19006KT 06/02 A3022 RMK A01 T00580023  RH  078%=      5-min Rain = 0
KAI1 140657Z 18006KT 06/02 A3022 RMK A01 T00590022  RH  077%=      5-min Rain = 0
KAI1 140658Z 18007KT 06/02 A3022 RMK A01 T00590022  RH  077%=      5-min Rain = 0
KAI1 140659Z 18008KT 06/02 A3022 RMK A01 T00590022  RH  077%=      5-min Rain = 0
KAI1 140700Z 18008KT 06/02 A3022 RMK A01 T00600023  RH  077%=      5-min Rain = 0
KAI1 140701Z 18008KT 06/02 A3022 RMK A01 T00600023  RH  077%=      5-min Rain = 0
KAI1 140702Z 18008KT 06/02 A3022 RMK A01 T00610023  RH  077%=      5-min Rain = 0
KAI1 140703Z 19008KT 06/02 A3022 RMK A01 T00620023  RH  077%=      5-min Rain = 0
KAI1 140704Z 19008KT 06/02 A3022 RMK A01 T00620024  RH  076%=      5-min Rain = 0
KAI1 140705Z 19008KT 06/02 A3022 RMK A01 T00620023  RH  076%=      5-min Rain = 0
KAI1 140706Z 19008KT 06/02 A3022 RMK A01 T00620023  RH  076%=      5-min Rain = 0
KAI1 140707Z 19008KT 06/02 A3022 RMK A01 T00620023  RH  076%=      5-min Rain = 0
KAI1 140708Z 19008KT 06/02 A3022 RMK A01 T00620023  RH  076%=      5-min Rain = 0
KAI1 140709Z 19008KT 06/02 A3022 RMK A01 T00610022  RH  076%=      5-min Rain = 0
KAI1 140710Z 19008KT 06/02 A3022 RMK A01 T00610022  RH  076%=      5-min Rain = 0
KAI1 140711Z 19008KT 06/02 A3022 RMK A01 T00610022  RH  076%=      5-min Rain = 0
KAI1 140712Z 19007KT 06/02 A3022 RMK A01 T00600022  RH  076%=      5-min Rain = 0
KAI1 140713Z 19007KT 06/02 A3022 RMK A01 T00600022  RH  077%=      5-min Rain = 0
KAI1 140714Z 19006KT 06/02 A3022 RMK A01 T00600022  RH  077%=      5-min Rain = 0
KAI1 140715Z 19006KT 06/02 A3022 RMK A01 T00600022  RH  077%=      5-min Rain = 0
KAI1 140716Z 19006KT 06/02 A3022 RMK A01 T00590022  RH  077%=      5-min Rain = 0
KAI1 140717Z 19006KT 06/02 A3022 RMK A01 T00590022  RH  077%=      5-min Rain = 0
KAI1 140718Z 19005KT 06/02 A3022 RMK A01 T00590022  RH  077%=      5-min Rain = 0
KAI1 140719Z 19005KT 06/02 A3022 RMK A01 T00580022  RH  077%=      5-min Rain = 0
KAI1 140720Z 19005KT 06/02 A3022 RMK A01 T00580022  RH  077%=      5-min Rain = 0
KAI1 140721Z 20005KT 06/02 A3022 RMK A01 T00580021  RH  077%=      5-min Rain = 0
KAI1 140722Z 20005KT 06/02 A3022 RMK A01 T00580021  RH  077%=      5-min Rain = 0
KAI1 140723Z 20004KT 06/02 A3022 RMK A01 T00570022  RH  078%=      5-min Rain = 0
KAI1 140724Z 20004KT 06/02 A3022 RMK A01 T00570022  RH  078%=      5-min Rain = 0
KAI1 140725Z 21003KT 06/02 A3022 RMK A01 T00570022  RH  078%=      5-min Rain = 0
KAI1 140726Z 20003KT 06/02 A3022 RMK A01 T00570022  RH  078%=      5-min Rain = 0
KAI1 140727Z 21003KT 06/02 A3022 RMK A01 T00570023  RH  079%=      5-min Rain = 0
KAI1 140728Z 21002KT 06/02 A3022 RMK A01 T00570024  RH  079%=      5-min Rain = 0
KAI1 140729Z 21003KT 06/03 A3022 RMK A01 T00580025  RH  079%=      5-min Rain = 0
KAI1 140730Z 20003KT 06/03 A3022 RMK A01 T00580025  RH  079%=      5-min Rain = 0
KAI1 140731Z 20004KT 06/03 A3022 RMK A01 T00590025  RH  079%=      5-min Rain = 0
KAI1 140732Z 20004KT 06/03 A3022 RMK A01 T00590025  RH  079%=      5-min Rain = 0
KAI1 140733Z 20004KT 06/03 A3022 RMK A01 T00590025  RH  079%=      5-min Rain = 0
KAI1 140734Z 20004KT 06/02 A3022 RMK A01 T00590024  RH  078%=      5-min Rain = 0
KAI1 140735Z 21004KT 06/02 A3022 RMK A01 T00590024  RH  078%=      5-min Rain = 0
KAI1 140736Z 21005KT 06/02 A3022 RMK A01 T00580022  RH  078%=      5-min Rain = 0
KAI1 140737Z 21005KT 06/02 A3022 RMK A01 T00560021  RH  078%=      5-min Rain = 0
KAI1 140738Z 21005KT 05/02 A3022 RMK A01 T00540019  RH  078%=      5-min Rain = 0
KAI1 140739Z 21005KT 05/02 A3022 RMK A01 T00520018  RH  079%=      5-min Rain = 0
KAI1 140740Z 21005KT 05/02 A3022 RMK A01 T00500018  RH  079%=      5-min Rain = 0
KAI1 140741Z 21006KT 05/02 A3022 RMK A01 T00490017  RH  080%=      5-min Rain = 0
KAI1 140742Z 21006KT 05/02 A3022 RMK A01 T00490018  RH  080%=      5-min Rain = 0
KAI1 140743Z 21006KT 05/02 A3022 RMK A01 T00480017  RH  081%=      5-min Rain = 0
KAI1 140744Z 21006KT 05/02 A3022 RMK A01 T00480018  RH  081%=      5-min Rain = 0
KAI1 140745Z 21006KT 05/02 A3022 RMK A01 T00490018  RH  081%=      5-min Rain = 0
KAI1 140746Z 20006KT 05/02 A3022 RMK A01 T00480018  RH  081%=      5-min Rain = 0
KAI1 140747Z 20006KT 05/02 A3022 RMK A01 T00480018  RH  081%=      5-min Rain = 0
KAI1 140748Z 20006KT 05/02 A3022 RMK A01 T00480018  RH  081%=      5-min Rain = 0
KAI1 140749Z 21006KT 05/02 A3022 RMK A01 T00480018  RH  081%=      5-min Rain = 0
KAI1 140750Z 21006KT 05/02 A3022 RMK A01 T00480018  RH  081%=      5-min Rain = 0
KAI1 140751Z 21006KT 05/02 A3022 RMK A01 T00480018  RH  081%=      5-min Rain = 0
KAI1 140752Z 21006KT 05/02 A3022 RMK A01 T00480018  RH  081%=      5-min Rain = 0
KAI1 140753Z 21006KT 05/02 A3022 RMK A01 T00480019  RH  082%=      5-min Rain = 0
KAI1 140754Z 21006KT 05/02 A3022 RMK A01 T00480019  RH  082%=      5-min Rain = 0
KAI1 140755Z 21006KT 05/02 A3022 RMK A01 T00480019  RH  081%=      5-min Rain = 0
KAI1 140756Z 21006KT 05/02 A3022 RMK A01 T00480019  RH  081%=      5-min Rain = 0
KAI1 140757Z 21005KT 05/02 A3022 RMK A01 T00480019  RH  081%=      5-min Rain = 0
KAI1 140758Z 21005KT 05/02 A3022 RMK A01 T00480019  RH  081%=      5-min Rain = 0
KAI1 140759Z 21005KT 05/02 A3022 RMK A01 T00480019  RH  081%=      5-min Rain = 0
KAI1 140800Z 21006KT 05/02 A3022 RMK A01 T00480018  RH  081%=      5-min Rain = 0
KAI1 140801Z 21006KT 05/02 A3022 RMK A01 T00480019  RH  082%=      5-min Rain = 0
KAI1 140802Z 21006KT 05/02 A3022 RMK A01 T00480020  RH  082%=      5-min Rain = 0
KAI1 140803Z 21006KT 05/02 A3022 RMK A01 T00480019  RH  082%=      5-min Rain = 0
KAI1 140804Z 21006KT 05/02 A3022 RMK A01 T00480020  RH  082%=      5-min Rain = 0
KAI1 140805Z 21006KT 05/02 A3022 RMK A01 T00480019  RH  082%=      5-min Rain = 0
KAI1 140806Z 22006KT 05/02 A3022 RMK A01 T00480020  RH  082%=      5-min Rain = 0
KAI1 140807Z 22006KT 05/02 A3022 RMK A01 T00480019  RH  082%=      5-min Rain = 0
KAI1 140808Z 22006KT 05/02 A3022 RMK A01 T00480019  RH  082%=      5-min Rain = 0
KAI1 140809Z 22006KT 05/02 A3022 RMK A01 T00480019  RH  082%=      5-min Rain = 0
KAI1 140810Z 22006KT 05/02 A3022 RMK A01 T00480019  RH  082%=      5-min Rain = 0
KAI1 140811Z 22006KT 05/02 A3022 RMK A01 T00480019  RH  081%=      5-min Rain = 0
KAI1 140812Z 22006KT 05/02 A3022 RMK A01 T00480019  RH  081%=      5-min Rain = 0
KAI1 140813Z 22006KT 05/02 A3022 RMK A01 T00480019  RH  082%=      5-min Rain = 0
KAI1 140814Z 22006KT 05/02 A3022 RMK A01 T00480019  RH  082%=      5-min Rain = 0
KAI1 140815Z 22006KT 05/02 A3022 RMK A01 T00480019  RH  082%=      5-min Rain = 0
KAI1 140816Z 22006KT 05/02 A3022 RMK A01 T00470019  RH  082%=      5-min Rain = 0
KAI1 140817Z 22006KT 05/02 A3022 RMK A01 T00470018  RH  082%=      5-min Rain = 0
KAI1 140818Z 22006KT 05/02 A3022 RMK A01 T00470018  RH  082%=      5-min Rain = 0
KAI1 140819Z 21006KT 05/02 A3022 RMK A01 T00470019  RH  082%=      5-min Rain = 0
KAI1 140820Z 21006KT 05/02 A3022 RMK A01 T00470019  RH  082%=      5-min Rain = 0
KAI1 140821Z 21006KT 05/02 A3022 RMK A01 T00470019  RH  082%=      5-min Rain = 0
KAI1 140822Z 21006KT 05/02 A3022 RMK A01 T00470019  RH  082%=      5-min Rain = 0
KAI1 140823Z 21006KT 05/02 A3022 RMK A01 T00480020  RH  082%=      5-min Rain = 0
KAI1 140824Z 20006KT 05/02 A3022 RMK A01 T00480020  RH  082%=      5-min Rain = 0
KAI1 140825Z 20006KT 05/02 A3022 RMK A01 T00490020  RH  082%=      5-min Rain = 0
KAI1 140826Z 20005KT 05/02 A3022 RMK A01 T00500021  RH  081%=      5-min Rain = 0
KAI1 140827Z 21005KT 05/02 A3022 RMK A01 T00500021  RH  081%=      5-min Rain = 0
KAI1 140828Z 21005KT 05/02 A3022 RMK A01 T00500020  RH  081%=      5-min Rain = 0
KAI1 140829Z 21005KT 05/02 A3022 RMK A01 T00510020  RH  080%=      5-min Rain = 0
KAI1 140830Z 21005KT 05/02 A3022 RMK A01 T00510020  RH  080%=      5-min Rain = 0
KAI1 140831Z 21005KT 05/02 A3022 RMK A01 T00510020  RH  080%=      5-min Rain = 0
KAI1 140832Z 21005KT 05/02 A3022 RMK A01 T00520020  RH  080%=      5-min Rain = 0
KAI1 140833Z 21005KT 05/02 A3022 RMK A01 T00510020  RH  080%=      5-min Rain = 0
KAI1 140834Z 21005KT 05/02 A3021 RMK A01 T00520020  RH  080%=      5-min Rain = 0
KAI1 140835Z 20005KT 05/02 A3021 RMK A01 T00510020  RH  080%=      5-min Rain = 0
KAI1 140836Z 20005KT 05/02 A3021 RMK A01 T00510019  RH  080%=      5-min Rain = 0
KAI1 140837Z 20005KT 05/02 A3021 RMK A01 T00500019  RH  080%=      5-min Rain = 0
KAI1 140838Z 20005KT 05/02 A3021 RMK A01 T00500019  RH  080%=      5-min Rain = 0
KAI1 140839Z 20006KT 05/02 A3021 RMK A01 T00500019  RH  080%=      5-min Rain = 0
KAI1 140840Z 20006KT 05/02 A3021 RMK A01 T00500019  RH  081%=      5-min Rain = 0
KAI1 140841Z 20006KT 05/02 A3021 RMK A01 T00490019  RH  081%=      5-min Rain = 0
KAI1 140842Z 20006KT 05/02 A3021 RMK A01 T00500019  RH  081%=      5-min Rain = 0
KAI1 140843Z 19005KT 05/02 A3021 RMK A01 T00500019  RH  080%=      5-min Rain = 0
KAI1 140844Z 19005KT 05/02 A3021 RMK A01 T00500019  RH  080%=      5-min Rain = 0
KAI1 140845Z 19005KT 05/02 A3021 RMK A01 T00500019  RH  080%=      5-min Rain = 0
KAI1 140846Z 19006KT 05/02 A3021 RMK A01 T00490018  RH  080%=      5-min Rain = 0
KAI1 140847Z 19005KT 05/02 A3021 RMK A01 T00490018  RH  080%=      5-min Rain = 0
KAI1 140848Z 19005KT 05/02 A3021 RMK A01 T00490018  RH  080%=      5-min Rain = 0
KAI1 140849Z 20005KT 05/02 A3021 RMK A01 T00490017  RH  080%=      5-min Rain = 0
KAI1 140850Z 20004KT 05/02 A302 RMK A01 T00480016  RH  080%=      5-min Rain = 0
KAI1 140851Z 20005KT 05/02 A302 RMK A01 T00470016  RH  080%=      5-min Rain = 0
KAI1 140852Z 20005KT 05/02 A302 RMK A01 T00460016  RH  081%=      5-min Rain = 0
KAI1 140853Z 21005KT 05/02 A302 RMK A01 T00460016  RH  081%=      5-min Rain = 0
KAI1 140854Z 21005KT 05/02 A302 RMK A01 T00450015  RH  081%=      5-min Rain = 0
KAI1 140855Z 21006KT 05/02 A302 RMK A01 T00460015  RH  081%=      5-min Rain = 0
KAI1 140856Z 21006KT 05/02 A302 RMK A01 T00460015  RH  081%=      5-min Rain = 0
KAI1 140857Z 21006KT 05/02 A302 RMK A01 T00460015  RH  081%=      5-min Rain = 0
KAI1 140858Z 21006KT 05/01 A302 RMK A01 T00450014  RH  080%=      5-min Rain = 0
KAI1 140859Z 20006KT 05/01 A302 RMK A01 T00450014  RH  080%=      5-min Rain = 0
KAI1 140900Z 20006KT 05/01 A302 RMK A01 T00450014  RH  080%=      5-min Rain = 0
KAI1 140901Z 20006KT 05/01 A302 RMK A01 T00450014  RH  080%=      5-min Rain = 0
KAI1 140902Z 20005KT 05/01 A302 RMK A01 T00460014  RH  080%=      5-min Rain = 0
KAI1 140903Z 19005KT 05/02 A302 RMK A01 T00470015  RH  080%=      5-min Rain = 0
KAI1 140904Z 20005KT 05/01 A302 RMK A01 T00470014  RH  079%=      5-min Rain = 0
KAI1 140905Z 20006KT 05/01 A302 RMK A01 T00480014  RH  079%=      5-min Rain = 0
KAI1 140906Z 20005KT 05/01 A302 RMK A01 T00480013  RH  078%=      5-min Rain = 0
KAI1 140907Z 20006KT 05/01 A302 RMK A01 T00480013  RH  078%=      5-min Rain = 0
KAI1 140908Z 20006KT 05/01 A302 RMK A01 T00480013  RH  078%=      5-min Rain = 0
KAI1 140909Z 20006KT 05/01 A302 RMK A01 T00490013  RH  078%=      5-min Rain = 0
KAI1 140910Z 21006KT 05/01 A302 RMK A01 T00490013  RH  077%=      5-min Rain = 0
KAI1 140911Z 21006KT 05/01 A3019 RMK A01 T00490013  RH  078%=      5-min Rain = 0
KAI1 140912Z 21007KT 05/01 A3019 RMK A01 T00490013  RH  078%=      5-min Rain = 0
KAI1 140913Z 21007KT 05/01 A3019 RMK A01 T00490013  RH  078%=      5-min Rain = 0
KAI1 140914Z 21008KT 05/01 A3019 RMK A01 T00490013  RH  078%=      5-min Rain = 0
KAI1 140915Z 22008KT 05/01 A3019 RMK A01 T00490012  RH  077%=      5-min Rain = 0
KAI1 140916Z 22008KT 05/01 A3019 RMK A01 T00490012  RH  077%=      5-min Rain = 0
KAI1 140917Z 22008KT 05/01 A3019 RMK A01 T00500012  RH  076%=      5-min Rain = 0
KAI1 140918Z 22007KT 05/01 A3019 RMK A01 T00500011  RH  076%=      5-min Rain = 0
KAI1 140919Z 21007KT 05/01 A3019 RMK A01 T00500011  RH  076%=      5-min Rain = 0
KAI1 140920Z 21007KT 05/01 A3019 RMK A01 T00500011  RH  076%=      5-min Rain = 0
KAI1 140921Z 21007KT 05/01 A3019 RMK A01 T00500010  RH  075%=      5-min Rain = 0
KAI1 140922Z 21007KT 05/01 A3019 RMK A01 T00500010  RH  075%=      5-min Rain = 0
KAI1 140923Z 21008KT 05/01 A3019 RMK A01 T00500010  RH  075%=      5-min Rain = 0
KAI1 140924Z 21008KT 05/01 A3019 RMK A01 T00500009  RH  075%=      5-min Rain = 0
KAI1 140925Z 21008KT 05/01 A3019 RMK A01 T00500009  RH  075%=      5-min Rain = 0
KAI1 140926Z 21008KT 05/01 A3019 RMK A01 T00500008  RH  075%=      5-min Rain = 0
KAI1 140927Z 21008KT 05/01 A3019 RMK A01 T00500008  RH  074%=      5-min Rain = 0
KAI1 140928Z 21008KT 05/01 A3019 RMK A01 T00500008  RH  074%=      5-min Rain = 0
KAI1 140929Z 21008KT 05/01 A3019 RMK A01 T00500008  RH  074%=      5-min Rain = 0
KAI1 140930Z 21008KT 05/01 A3019 RMK A01 T00500008  RH  074%=      5-min Rain = 0
KAI1 140931Z 21007KT 05/01 A3019 RMK A01 T00500007  RH  074%=      5-min Rain = 0
KAI1 140932Z 21007KT 05/01 A3019 RMK A01 T00500007  RH  074%=      5-min Rain = 0
KAI1 140933Z 21007KT 05/01 A3019 RMK A01 T00490007  RH  074%=      5-min Rain = 0
KAI1 140934Z 21007KT 05/01 A3019 RMK A01 T00490007  RH  074%=      5-min Rain = 0
KAI1 140935Z 21007KT 05/01 A3019 RMK A01 T00490007  RH  074%=      5-min Rain = 0
KAI1 140936Z 22007KT 05/01 A3019 RMK A01 T00490006  RH  074%=      5-min Rain = 0
KAI1 140937Z 21007KT 05/01 A3019 RMK A01 T00490006  RH  074%=      5-min Rain = 0
KAI1 140938Z 22007KT 05/01 A3019 RMK A01 T00480006  RH  074%=      5-min Rain = 0
KAI1 140939Z 22007KT 05/01 A3019 RMK A01 T00480006  RH  074%=      5-min Rain = 0
KAI1 140940Z 21007KT 05/01 A3019 RMK A01 T00480005  RH  074%=      5-min Rain = 0
KAI1 140941Z 21007KT 05/01 A3019 RMK A01 T00470005  RH  074%=      5-min Rain = 0
KAI1 140942Z 21007KT 05/01 A3019 RMK A01 T00470005  RH  074%=      5-min Rain = 0
KAI1 140943Z 21007KT 05/01 A3019 RMK A01 T00470005  RH  074%=      5-min Rain = 0
KAI1 140944Z 22007KT 05/01 A3019 RMK A01 T00460005  RH  074%=      5-min Rain = 0
KAI1 140945Z 22007KT 05/00 A3019 RMK A01 T00460004  RH  074%=      5-min Rain = 0
KAI1 140946Z 22006KT 05/00 A3019 RMK A01 T00460004  RH  074%=      5-min Rain = 0
KAI1 140947Z 22006KT 05/01 A3019 RMK A01 T00470005  RH  074%=      5-min Rain = 0
KAI1 140948Z 22006KT 05/00 A3019 RMK A01 T00460004  RH  074%=      5-min Rain = 0
KAI1 140949Z 22005KT 05/00 A3019 RMK A01 T00460004  RH  074%=      5-min Rain = 0
KAI1 140950Z 23005KT 05/00 A3019 RMK A01 T00460004  RH  074%=      5-min Rain = 0
KAI1 140951Z 24004KT 05/00 A3019 RMK A01 T00460004  RH  074%=      5-min Rain = 0
KAI1 140952Z 25004KT 05/00 A3019 RMK A01 T00450004  RH  074%=      5-min Rain = 0
KAI1 140953Z 25004KT 05/00 A3019 RMK A01 T00450004  RH  075%=      5-min Rain = 0
KAI1 140954Z 26004KT 05/00 A302 RMK A01 T00450004  RH  075%=      5-min Rain = 0
KAI1 140955Z 25004KT 04/00 A302 RMK A01 T00440003  RH  075%=      5-min Rain = 0
KAI1 140956Z 24004KT 04/00 A302 RMK A01 T00440003  RH  075%=      5-min Rain = 0
KAI1 140957Z 24004KT 04/00 A302 RMK A01 T00430003  RH  075%=      5-min Rain = 0
KAI1 140958Z 24004KT 04/00 A302 RMK A01 T00430003  RH  075%=      5-min Rain = 0
KAI1 140959Z 25004KT 04/00 A302 RMK A01 T00430003  RH  075%=      5-min Rain = 0
KAI1 141000Z 25004KT 04/00 A302 RMK A01 T00430003  RH  075%=      5-min Rain = 0
KAI1 141001Z 25004KT 04/00 A302 RMK A01 T00430003  RH  075%=      5-min Rain = 0
KAI1 141002Z 25004KT 04/00 A3019 RMK A01 T00430002  RH  075%=      5-min Rain = 0
KAI1 141003Z 25004KT 04/00 A3019 RMK A01 T00430002  RH  075%=      5-min Rain = 0
KAI1 141004Z 24005KT 04/00 A3019 RMK A01 T00440003  RH  075%=      5-min Rain = 0
KAI1 141005Z 25005KT 04/00 A3019 RMK A01 T00440002  RH  075%=      5-min Rain = 0
KAI1 141006Z 25005KT 04/00 A3019 RMK A01 T00440003  RH  074%=      5-min Rain = 0
KAI1 141007Z 25005KT 04/00 A302 RMK A01 T00440002  RH  074%=      5-min Rain = 0
KAI1 141008Z 24005KT 04/00 A302 RMK A01 T00440002  RH  074%=      5-min Rain = 0
KAI1 141009Z 24005KT 05/00 A302 RMK A01 T00450003  RH  074%=      5-min Rain = 0
KAI1 141010Z 24006KT 05/00 A302 RMK A01 T00450002  RH  074%=      5-min Rain = 0
KAI1 141011Z 24006KT 05/00 A302 RMK A01 T00450002  RH  074%=      5-min Rain = 0
KAI1 141012Z 24005KT 04/00 A302 RMK A01 T00440002  RH  074%=      5-min Rain = 0
KAI1 141013Z 23005KT 04/00 A302 RMK A01 T00440002  RH  074%=      5-min Rain = 0
KAI1 141014Z 23006KT 04/00 A302 RMK A01 T00430001  RH  074%=      5-min Rain = 0
KAI1 141015Z 23006KT 04/00 A302 RMK A01 T00420001  RH  074%=      5-min Rain = 0
KAI1 141016Z 24006KT 04/00 A302 RMK A01 T00410000  RH  075%=      5-min Rain = 0
KAI1 141017Z 24006KT 04/00 A302 RMK A01 T00410000  RH  075%=      5-min Rain = 0
KAI1 141018Z 23006KT 04/00 A302 RMK A01 T00410000  RH  075%=      5-min Rain = 0
KAI1 141019Z 23006KT 04/00 A302 RMK A01 T00410000  RH  075%=      5-min Rain = 0
KAI1 141020Z 23007KT 04/00 A302 RMK A01 T00410001  RH  075%=      5-min Rain = 0
KAI1 141021Z 22007KT 04/00 A302 RMK A01 T004000-0  RH  075%=      5-min Rain = 0
KAI1 141022Z 23007KT 04/00 A302 RMK A01 T004000-0  RH  075%=      5-min Rain = 0
KAI1 141023Z 23007KT 04/00 A302 RMK A01 T00400000  RH  075%=      5-min Rain = 0
KAI1 141024Z 23007KT 04/00 A302 RMK A01 T00400000  RH  075%=      5-min Rain = 0
KAI1 141025Z 23007KT 04/00 A302 RMK A01 T00400000  RH  075%=      5-min Rain = 0
KAI1 141026Z 23007KT 04/00 A302 RMK A01 T00400000  RH  075%=      5-min Rain = 0
KAI1 141027Z 23007KT 04/00 A302 RMK A01 T00410000  RH  075%=      5-min Rain = 0
KAI1 141028Z 23006KT 04/00 A302 RMK A01 T00410000  RH  074%=      5-min Rain = 0
KAI1 141029Z 23006KT 04/00 A302 RMK A01 T004100-0  RH  074%=      5-min Rain = 0
KAI1 141030Z 22005KT 04/M00 A302 RMK A01 T00411001  RH  074%=      5-min Rain = 0
KAI1 141031Z 22005KT 04/M00 A302 RMK A01 T00401001  RH  074%=      5-min Rain = 0
KAI1 141032Z 22005KT 04/M00 A302 RMK A01 T00401001  RH  075%=      5-min Rain = 0
KAI1 141033Z 22005KT 04/M00 A302 RMK A01 T00391001  RH  075%=      5-min Rain = 0
KAI1 141034Z 22005KT 04/M00 A3019 RMK A01 T00401001  RH  075%=      5-min Rain = 0
KAI1 141035Z 22005KT 04/M00 A3019 RMK A01 T00401001  RH  075%=      5-min Rain = 0
KAI1 141036Z 22004KT 04/M00 A3019 RMK A01 T00401001  RH  075%=      5-min Rain = 0
KAI1 141037Z 22005KT 04/M00 A3019 RMK A01 T00401001  RH  075%=      5-min Rain = 0
KAI1 141038Z 22005KT 04/M00 A3019 RMK A01 T00391001  RH  075%=      5-min Rain = 0
KAI1 141039Z 22005KT 04/M00 A3019 RMK A01 T00401001  RH  075%=      5-min Rain = 0
KAI1 141040Z 23005KT 04/M00 A3019 RMK A01 T00401001  RH  075%=      5-min Rain = 0
KAI1 141041Z 23005KT 04/M00 A3019 RMK A01 T00401002  RH  074%=      5-min Rain = 0
KAI1 141042Z 23005KT 04/M00 A3019 RMK A01 T00391002  RH  074%=      5-min Rain = 0
KAI1 141043Z 23005KT 04/M00 A302 RMK A01 T00391002  RH  075%=      5-min Rain = 0
KAI1 141044Z 23005KT 04/M00 A302 RMK A01 T00381003  RH  075%=      5-min Rain = 0
KAI1 141045Z 23005KT 04/M00 A3019 RMK A01 T00381003  RH  075%=      5-min Rain = 0
KAI1 141046Z 23005KT 04/M00 A3019 RMK A01 T00371003  RH  075%=      5-min Rain = 0
KAI1 141047Z 22005KT 04/M00 A3019 RMK A01 T00371003  RH  075%=      5-min Rain = 0
KAI1 141048Z 22005KT 04/M00 A3019 RMK A01 T00371003  RH  075%=      5-min Rain = 0
KAI1 141049Z 22005KT 04/M00 A3019 RMK A01 T00361004  RH  075%=      5-min Rain = 0
KAI1 141050Z 22005KT 04/M00 A3019 RMK A01 T00361004  RH  075%=      5-min Rain = 0
KAI1 141051Z 23006KT 04/M00 A3019 RMK A01 T00361004  RH  075%=      5-min Rain = 0
KAI1 141052Z 23006KT 04/M01 A3019 RMK A01 T00361005  RH  075%=      5-min Rain = 0
KAI1 141053Z 24006KT 04/M01 A3019 RMK A01 T00351006  RH  075%=      5-min Rain = 0
KAI1 141054Z 24006KT 03/M01 A3019 RMK A01 T00341006  RH  075%=      5-min Rain = 0
KAI1 141055Z 23006KT 03/M01 A3019 RMK A01 T00341006  RH  075%=      5-min Rain = 0
KAI1 141056Z 23005KT 03/M01 A3019 RMK A01 T00331007  RH  075%=      5-min Rain = 0
KAI1 141057Z 24005KT 03/M01 A3019 RMK A01 T00331007  RH  075%=      5-min Rain = 0
KAI1 141058Z 24005KT 03/M01 A3019 RMK A01 T00321007  RH  076%=      5-min Rain = 0
KAI1 141059Z 24005KT 03/M01 A3019 RMK A01 T00311007  RH  076%=      5-min Rain = 0
KAI1 141100Z 24005KT 03/M01 A3019 RMK A01 T00311007  RH  076%=      5-min Rain = 0
KAI1 141101Z 24006KT 03/M01 A302 RMK A01 T00311007  RH  076%=      5-min Rain = 0
KAI1 141102Z 24006KT 03/M01 A302 RMK A01 T00311006  RH  076%=      5-min Rain = 0
KAI1 141103Z 24006KT 03/M01 A302 RMK A01 T00321006  RH  076%=      5-min Rain = 0
KAI1 141104Z 24006KT 03/M01 A302 RMK A01 T00321007  RH  076%=      5-min Rain = 0
KAI1 141105Z 24006KT 03/M01 A302 RMK A01 T00311008  RH  076%=      5-min Rain = 0
KAI1 141106Z 24006KT 03/M01 A302 RMK A01 T00311008  RH  076%=      5-min Rain = 0
KAI1 141107Z 24007KT 03/M01 A302 RMK A01 T00291009  RH  076%=      5-min Rain = 0
KAI1 141108Z 24007KT 03/M01 A302 RMK A01 T00281010  RH  076%=      5-min Rain = 0
KAI1 141109Z 23007KT 03/M01 A302 RMK A01 T00271010  RH  077%=      5-min Rain = 0
KAI1 141110Z 23006KT 03/M01 A3019 RMK A01 T00261010  RH  077%=      5-min Rain = 0
KAI1 141111Z 23006KT 03/M01 A3019 RMK A01 T00251011  RH  077%=      5-min Rain = 0
KAI1 141112Z 23006KT 02/M01 A302 RMK A01 T00231012  RH  077%=      5-min Rain = 0
KAI1 141113Z 23006KT 02/M01 A302 RMK A01 T00221012  RH  078%=      5-min Rain = 0
KAI1 141114Z 23006KT 02/M01 A302 RMK A01 T00211012  RH  078%=      5-min Rain = 0
KAI1 141115Z 23006KT 02/M01 A302 RMK A01 T00201012  RH  079%=      5-min Rain = 0
KAI1 141116Z 23006KT 02/M01 A302 RMK A01 T00201013  RH  079%=      5-min Rain = 0
KAI1 141117Z 23007KT 02/M01 A302 RMK A01 T00201012  RH  079%=      5-min Rain = 0
KAI1 141118Z 23007KT 02/M01 A302 RMK A01 T00191013  RH  079%=      5-min Rain = 0
KAI1 141119Z 23006KT 02/M01 A302 RMK A01 T00191013  RH  079%=      5-min Rain = 0
KAI1 141120Z 24006KT 02/M01 A302 RMK A01 T00191013  RH  079%=      5-min Rain = 0
KAI1 141121Z 24006KT 02/M01 A302 RMK A01 T00181013  RH  080%=      5-min Rain = 0
KAI1 141122Z 24006KT 02/M01 A302 RMK A01 T00181013  RH  080%=      5-min Rain = 0
KAI1 141123Z 24007KT 02/M01 A302 RMK A01 T00191012  RH  080%=      5-min Rain = 0
KAI1 141124Z 24007KT 02/M01 A302 RMK A01 T00191012  RH  080%=      5-min Rain = 0
KAI1 141125Z 24007KT 02/M01 A302 RMK A01 T00191013  RH  079%=      5-min Rain = 0
KAI1 141126Z 24007KT 02/M01 A302 RMK A01 T00201013  RH  079%=      5-min Rain = 0
KAI1 141127Z 24007KT 02/M01 A302 RMK A01 T00211012  RH  079%=      5-min Rain = 0
KAI1 141128Z 24007KT 02/M01 A302 RMK A01 T00211012  RH  078%=      5-min Rain = 0
KAI1 141129Z 24007KT 02/M01 A302 RMK A01 T00221012  RH  078%=      5-min Rain = 0
KAI1 141130Z 24007KT 02/M01 A302 RMK A01 T00221012  RH  078%=      5-min Rain = 0
KAI1 141131Z 24007KT 02/M01 A302 RMK A01 T00221013  RH  078%=      5-min Rain = 0
KAI1 141132Z 23007KT 02/M01 A302 RMK A01 T00221013  RH  077%=      5-min Rain = 0
KAI1 141133Z 23007KT 02/M01 A302 RMK A01 T00221014  RH  077%=      5-min Rain = 0
KAI1 141134Z 23007KT 02/M01 A302 RMK A01 T00221014  RH  077%=      5-min Rain = 0
KAI1 141135Z 23007KT 02/M01 A302 RMK A01 T00221014  RH  077%=      5-min Rain = 0
KAI1 141136Z 23007KT 02/M01 A302 RMK A01 T00221013  RH  078%=      5-min Rain = 0
KAI1 141137Z 23007KT 02/M01 A302 RMK A01 T00221013  RH  078%=      5-min Rain = 0
KAI1 141138Z 23007KT 02/M01 A302 RMK A01 T00221013  RH  078%=      5-min Rain = 0
KAI1 141139Z 23007KT 02/M01 A302 RMK A01 T00231012  RH  078%=      5-min Rain = 0
KAI1 141140Z 23007KT 02/M01 A302 RMK A01 T00241011  RH  078%=      5-min Rain = 0
KAI1 141141Z 23007KT 03/M01 A302 RMK A01 T00251011  RH  077%=      5-min Rain = 0
KAI1 141142Z 22007KT 03/M01 A302 RMK A01 T00261010  RH  077%=      5-min Rain = 0
KAI1 141143Z 22007KT 03/M01 A302 RMK A01 T00271009  RH  077%=      5-min Rain = 0
KAI1 141144Z 22007KT 03/M01 A3019 RMK A01 T00281008  RH  077%=      5-min Rain = 0
KAI1 141145Z 22007KT 03/M01 A3019 RMK A01 T00301007  RH  076%=      5-min Rain = 0
KAI1 141146Z 22007KT 03/M01 A3019 RMK A01 T00321007  RH  076%=      5-min Rain = 0
KAI1 141147Z 22006KT 03/M01 A3019 RMK A01 T00331006  RH  075%=      5-min Rain = 0
KAI1 141148Z 21007KT 03/M01 A302 RMK A01 T00341006  RH  075%=      5-min Rain = 0
KAI1 141149Z 20007KT 04/M01 A302 RMK A01 T00361005  RH  074%=      5-min Rain = 0
KAI1 141150Z 21007KT 04/M01 A302 RMK A01 T00371005  RH  074%=      5-min Rain = 0
KAI1 141151Z 21007KT 04/M01 A302 RMK A01 T00381005  RH  073%=      5-min Rain = 0
KAI1 141152Z 22007KT 04/M01 A302 RMK A01 T00391006  RH  073%=      5-min Rain = 0
KAI1 141153Z 22007KT 04/M01 A302 RMK A01 T00391006  RH  072%=      5-min Rain = 0
KAI1 141154Z 22007KT 04/M01 A302 RMK A01 T00391007  RH  072%=      5-min Rain = 0
KAI1 141155Z 22007KT 04/M01 A302 RMK A01 T00391007  RH  072%=      5-min Rain = 0
KAI1 141156Z 22007KT 04/M01 A302 RMK A01 T00391007  RH  072%=      5-min Rain = 0
KAI1 141157Z 21008KT 04/M01 A302 RMK A01 T00391008  RH  071%=      5-min Rain = 0
KAI1 141158Z 22008KT 04/M01 A302 RMK A01 T00401008  RH  071%=      5-min Rain = 0
KAI1 141159Z 22008KT 04/M01 A302 RMK A01 T00401007  RH  071%=      5-min Rain = 0
KAI1 141200Z 22007KT 04/M01 A302 RMK A01 T00401007  RH  071%=      5-min Rain = 0
KAI1 141201Z 23007KT 04/M01 A302 RMK A01 T00391008  RH  071%=      5-min Rain = 0
KAI1 141202Z 23008KT 04/M01 A302 RMK A01 T00391008  RH  071%=      5-min Rain = 0
KAI1 141203Z 22008KT 04/M01 A302 RMK A01 T00391008  RH  071%=      5-min Rain = 0
KAI1 141204Z 22008KT 04/M01 A302 RMK A01 T00381008  RH  072%=      5-min Rain = 0
KAI1 141205Z 22008KT 04/M01 A302 RMK A01 T00381009  RH  072%=      5-min Rain = 0
KAI1 141206Z 22007KT 04/M01 A302 RMK A01 T00381009  RH  072%=      5-min Rain = 0
KAI1 141207Z 22007KT 04/M01 A3021 RMK A01 T00381009  RH  072%=      5-min Rain = 0
KAI1 141208Z 23008KT 04/M01 A3021 RMK A01 T00371009  RH  072%=      5-min Rain = 0
KAI1 141209Z 23008KT 04/M01 A3021 RMK A01 T00371009  RH  072%=      5-min Rain = 0
KAI1 141210Z 23008KT 04/M01 A302 RMK A01 T00371009  RH  072%=      5-min Rain = 0
KAI1 141211Z 23008KT 04/M01 A302 RMK A01 T00371009  RH  072%=      5-min Rain = 0
KAI1 141212Z 23008KT 04/M01 A302 RMK A01 T00371008  RH  072%=      5-min Rain = 0
KAI1 141213Z 23008KT 04/M01 A302 RMK A01 T00381008  RH  072%=      5-min Rain = 0
KAI1 141214Z 22007KT 04/M01 A302 RMK A01 T00381008  RH  072%=      5-min Rain = 0
KAI1 141215Z 22007KT 04/M01 A302 RMK A01 T00381008  RH  072%=      5-min Rain = 0
KAI1 141216Z 22007KT 04/M01 A302 RMK A01 T00381008  RH  072%=      5-min Rain = 0
KAI1 141217Z 23008KT 04/M01 A302 RMK A01 T00381008  RH  072%=      5-min Rain = 0
KAI1 141218Z 22008KT 04/M01 A302 RMK A01 T00381008  RH  072%=      5-min Rain = 0
KAI1 141219Z 22008KT 04/M01 A302 RMK A01 T00381009  RH  072%=      5-min Rain = 0
KAI1 141220Z 22008KT 04/M01 A302 RMK A01 T00381009  RH  072%=      5-min Rain = 0
KAI1 141221Z 22008KT 04/M01 A302 RMK A01 T00381009  RH  072%=      5-min Rain = 0
KAI1 141222Z 22007KT 04/M01 A302 RMK A01 T00381009  RH  071%=      5-min Rain = 0
KAI1 141223Z 23007KT 04/M01 A302 RMK A01 T00381009  RH  071%=      5-min Rain = 0
KAI1 141224Z 23007KT 04/M01 A3021 RMK A01 T00381009  RH  071%=      5-min Rain = 0
KAI1 141225Z 24006KT 04/M01 A3021 RMK A01 T00381009  RH  071%=      5-min Rain = 0
KAI1 141226Z 24006KT 04/M01 A3021 RMK A01 T00371010  RH  071%=      5-min Rain = 0
KAI1 141227Z 24006KT 04/M01 A3021 RMK A01 T00361011  RH  071%=      5-min Rain = 0
KAI1 141228Z 23006KT 04/M01 A3021 RMK A01 T00351012  RH  072%=      5-min Rain = 0
KAI1 141229Z 23006KT 03/M01 A3021 RMK A01 T00331012  RH  072%=      5-min Rain = 0
KAI1 141230Z 23005KT 03/M01 A302 RMK A01 T00321013  RH  073%=      5-min Rain = 0
KAI1 141231Z 23005KT 03/M01 A302 RMK A01 T00311013  RH  073%=      5-min Rain = 0
KAI1 141232Z 23005KT 03/M01 A302 RMK A01 T00301013  RH  073%=      5-min Rain = 0
KAI1 141233Z 23005KT 03/M01 A302 RMK A01 T00291014  RH  073%=      5-min Rain = 0
KAI1 141234Z 23006KT 03/M01 A302 RMK A01 T00281014  RH  074%=      5-min Rain = 0
KAI1 141235Z 23006KT 03/M02 A302 RMK A01 T00281015  RH  074%=      5-min Rain = 0
KAI1 141236Z 22006KT 03/M02 A3021 RMK A01 T00271015  RH  074%=      5-min Rain = 0
KAI1 141237Z 23006KT 03/M02 A3021 RMK A01 T00261015  RH  074%=      5-min Rain = 0
KAI1 141238Z 23006KT 03/M02 A3021 RMK A01 T00251016  RH  074%=      5-min Rain = 0
KAI1 141239Z 23006KT 03/M02 A3021 RMK A01 T00251016  RH  075%=      5-min Rain = 0
KAI1 141240Z 24006KT 02/M02 A3021 RMK A01 T00241016  RH  075%=      5-min Rain = 0
KAI1 141241Z 23006KT 02/M02 A3021 RMK A01 T00231017  RH  075%=      5-min Rain = 0
KAI1 141242Z 23007KT 02/M02 A3021 RMK A01 T00231017  RH  075%=      5-min Rain = 0
KAI1 141243Z 23007KT 02/M02 A3021 RMK A01 T00221017  RH  075%=      5-min Rain = 0
KAI1 141244Z 23007KT 02/M02 A3021 RMK A01 T00221018  RH  075%=      5-min Rain = 0
KAI1 141245Z 23006KT 02/M02 A3021 RMK A01 T00211018  RH  075%=      5-min Rain = 0
KAI1 141246Z 24005KT 02/M02 A3021 RMK A01 T00201018  RH  075%=      5-min Rain = 0
KAI1 141247Z 23005KT 02/M02 A3021 RMK A01 T00201019  RH  076%=      5-min Rain = 0
KAI1 141248Z 23005KT 02/M02 A302 RMK A01 T00201018  RH  076%=      5-min Rain = 0
KAI1 141249Z 23005KT 02/M02 A302 RMK A01 T00201019  RH  076%=      5-min Rain = 0
KAI1 141250Z 23006KT 02/M02 A302 RMK A01 T00201019  RH  076%=      5-min Rain = 0
KAI1 141251Z 23006KT 02/M02 A302 RMK A01 T00201019  RH  076%=      5-min Rain = 0
KAI1 141252Z 22006KT 02/M02 A302 RMK A01 T00191020  RH  075%=      5-min Rain = 0
KAI1 141253Z 22007KT 02/M02 A302 RMK A01 T00191020  RH  076%=      5-min Rain = 0
KAI1 141254Z 22007KT 02/M02 A302 RMK A01 T00181020  RH  076%=      5-min Rain = 0
KAI1 141255Z 22007KT 02/M02 A302 RMK A01 T00181020  RH  076%=      5-min Rain = 0
KAI1 141256Z 22006KT 02/M02 A302 RMK A01 T00191019  RH  076%=      5-min Rain = 0
KAI1 141257Z 22006KT 02/M02 A302 RMK A01 T00201018  RH  076%=      5-min Rain = 0
KAI1 141258Z 21006KT 02/M02 A302 RMK A01 T00211018  RH  076%=      5-min Rain = 0
KAI1 141259Z 21007KT 02/M02 A302 RMK A01 T00211018  RH  075%=      5-min Rain = 0
KAI1 141300Z 21007KT 02/M02 A302 RMK A01 T00221017  RH  075%=      5-min Rain = 0
KAI1 141301Z 21008KT 02/M02 A302 RMK A01 T00231016  RH  075%=      5-min Rain = 0
KAI1 141302Z 21008KT 03/M02 A302 RMK A01 T00251015  RH  075%=      5-min Rain = 0
KAI1 141303Z 22007KT 03/M02 A302 RMK A01 T00261015  RH  074%=      5-min Rain = 0
KAI1 141304Z 22007KT 03/M01 A302 RMK A01 T00281014  RH  074%=      5-min Rain = 0
KAI1 141305Z 22007KT 03/M01 A302 RMK A01 T00291014  RH  073%=      5-min Rain = 0
KAI1 141306Z 22007KT 03/M01 A302 RMK A01 T00301013  RH  073%=      5-min Rain = 0
KAI1 141307Z 22007KT 03/M01 A302 RMK A01 T00311014  RH  073%=      5-min Rain = 0
KAI1 141308Z 22007KT 03/M01 A302 RMK A01 T00311014  RH  072%=      5-min Rain = 0
KAI1 141309Z 22007KT 03/M01 A302 RMK A01 T00321014  RH  072%=      5-min Rain = 0
KAI1 141310Z 22007KT 03/M01 A3019 RMK A01 T00331014  RH  072%=      5-min Rain = 0
KAI1 141311Z 22007KT 03/M01 A3019 RMK A01 T00331014  RH  071%=      5-min Rain = 0
KAI1 141312Z 22007KT 03/M01 A3019 RMK A01 T00331014  RH  071%=      5-min Rain = 0
KAI1 141313Z 22007KT 03/M01 A3019 RMK A01 T00331014  RH  071%=      5-min Rain = 0
KAI1 141314Z 23006KT 03/M01 A302 RMK A01 T00331014  RH  071%=      5-min Rain = 0
KAI1 141315Z 23006KT 03/M01 A302 RMK A01 T00321014  RH  071%=      5-min Rain = 0
KAI1 141316Z 23006KT 03/M02 A302 RMK A01 T00311015  RH  071%=      5-min Rain = 0
KAI1 141317Z 24006KT 03/M02 A302 RMK A01 T00311016  RH  072%=      5-min Rain = 0
KAI1 141318Z 24006KT 03/M02 A302 RMK A01 T00301016  RH  072%=      5-min Rain = 0
KAI1 141319Z 24006KT 03/M02 A302 RMK A01 T00291016  RH  072%=      5-min Rain = 0
KAI1 141320Z 24007KT 03/M02 A3019 RMK A01 T00291016  RH  072%=      5-min Rain = 0
KAI1 141321Z 23007KT 03/M02 A3019 RMK A01 T00291016  RH  072%=      5-min Rain = 0
KAI1 141322Z 23007KT 03/M02 A3019 RMK A01 T00291016  RH  072%=      5-min Rain = 0
KAI1 141323Z 22007KT 03/M02 A3019 RMK A01 T00281017  RH  072%=      5-min Rain = 0
KAI1 141324Z 23007KT 03/M02 A302 RMK A01 T00271018  RH  072%=      5-min Rain = 0
KAI1 141325Z 23008KT 03/M02 A302 RMK A01 T00251019  RH  073%=      5-min Rain = 0
KAI1 141326Z 23009KT 02/M02 A302 RMK A01 T00241019  RH  073%=      5-min Rain = 0
KAI1 141327Z 23009KT 02/M02 A302 RMK A01 T00231020  RH  073%=      5-min Rain = 0
KAI1 141328Z 23009KT 02/M02 A302 RMK A01 T00231019  RH  074%=      5-min Rain = 0
KAI1 141329Z 23009KT 02/M02 A3019 RMK A01 T00231018  RH  074%=      5-min Rain = 0
KAI1 141330Z 23008KT 03/M02 A3019 RMK A01 T00251017  RH  074%=      5-min Rain = 0
KAI1 141331Z 23007KT 03/M02 A3019 RMK A01 T00261016  RH  074%=      5-min Rain = 0
KAI1 141332Z 23007KT 03/M02 A3019 RMK A01 T00281015  RH  073%=      5-min Rain = 0
KAI1 141333Z 24007KT 03/M02 A3019 RMK A01 T00301015  RH  073%=      5-min Rain = 0
KAI1 141334Z 24007KT 03/M02 A3019 RMK A01 T00311015  RH  072%=      5-min Rain = 0
KAI1 141335Z 25006KT 03/M02 A3019 RMK A01 T00311015  RH  072%=      5-min Rain = 0
KAI1 141336Z 25006KT 03/M02 A3019 RMK A01 T00311015  RH  072%=      5-min Rain = 0
KAI1 141337Z 25007KT 03/M02 A3019 RMK A01 T00311015  RH  072%=      5-min Rain = 0
KAI1 141338Z 24007KT 03/M02 A3019 RMK A01 T00311015  RH  071%=      5-min Rain = 0
KAI1 141339Z 24007KT 03/M02 A3019 RMK A01 T00311015  RH  071%=      5-min Rain = 0
KAI1 141340Z 24007KT 03/M02 A3019 RMK A01 T00311016  RH  072%=      5-min Rain = 0
KAI1 141341Z 24007KT 03/M02 A3019 RMK A01 T00301016  RH  072%=      5-min Rain = 0
KAI1 141342Z 23008KT 03/M02 A3019 RMK A01 T00301016  RH  072%=      5-min Rain = 0
KAI1 141343Z 23008KT 03/M02 A3019 RMK A01 T00301016  RH  072%=      5-min Rain = 0
KAI1 141344Z 22009KT 03/M02 A3019 RMK A01 T00301016  RH  072%=      5-min Rain = 0
KAI1 141345Z 22009KT 03/M02 A3019 RMK A01 T00301015  RH  072%=      5-min Rain = 0
KAI1 141346Z 22010KT 03/M02 A3019 RMK A01 T00311015  RH  072%=      5-min Rain = 0
KAI1 141347Z 23009KT 03/M02 A3019 RMK A01 T00311015  RH  072%=      5-min Rain = 0
KAI1 141348Z 23010KT 03/M01 A302 RMK A01 T00331014  RH  072%=      5-min Rain = 0
KAI1 141349Z 23010KT 03/M01 A302 RMK A01 T00341013  RH  071%=      5-min Rain = 0
KAI1 141350Z 23010KT 04/M01 A302 RMK A01 T00351013  RH  071%=      5-min Rain = 0
KAI1 141351Z 23009KT 04/M01 A302 RMK A01 T00361012  RH  071%=      5-min Rain = 0
KAI1 141352Z 23010KT 04/M01 A302 RMK A01 T00381012  RH  070%=      5-min Rain = 0
KAI1 141353Z 23010KT 04/M01 A302 RMK A01 T00381012  RH  070%=      5-min Rain = 0
KAI1 141354Z 23010KT 04/M01 A302 RMK A01 T00391012  RH  069%=      5-min Rain = 0
KAI1 141355Z 23010KT 04/M01 A302 RMK A01 T00401012  RH  069%=      5-min Rain = 0
KAI1 141356Z 23009KT 04/M01 A302 RMK A01 T00411012  RH  069%=      5-min Rain = 0
KAI1 141357Z 23009KT 04/M01 A302 RMK A01 T00411012  RH  069%=      5-min Rain = 0
KAI1 141358Z 23009KT 04/M01 A302 RMK A01 T00401012  RH  068%=      5-min Rain = 0
KAI1 141359Z 23009KT 04/M01 A302 RMK A01 T00401013  RH  068%=      5-min Rain = 0
KAI1 141400Z 23009KT 04/M01 A302 RMK A01 T00411013  RH  068%=      5-min Rain = 0
KAI1 141401Z 23009KT 04/M01 A302 RMK A01 T00401013  RH  068%=      5-min Rain = 0
KAI1 141402Z 24008KT 04/M01 A3019 RMK A01 T00411013  RH  068%=      5-min Rain = 0
KAI1 141403Z 24007KT 04/M01 A3019 RMK A01 T00411013  RH  068%=      5-min Rain = 0
KAI1 141404Z 24007KT 04/M01 A3019 RMK A01 T00411012  RH  068%=      5-min Rain = 0
KAI1 141405Z 25007KT 04/M01 A3019 RMK A01 T00411013  RH  068%=      5-min Rain = 0
KAI1 141406Z 25007KT 04/M01 A3019 RMK A01 T00411013  RH  068%=      5-min Rain = 0
KAI1 141407Z 24007KT 04/M01 A3019 RMK A01 T00411012  RH  068%=      5-min Rain = 0
KAI1 141408Z 24007KT 04/M01 A3019 RMK A01 T00411013  RH  068%=      5-min Rain = 0
KAI1 141409Z 24007KT 04/M01 A3019 RMK A01 T00411013  RH  068%=      5-min Rain = 0
KAI1 141410Z 25007KT 04/M01 A3019 RMK A01 T00421013  RH  068%=      5-min Rain = 0
KAI1 141411Z 24007KT 04/M01 A3019 RMK A01 T00421013  RH  068%=      5-min Rain = 0
KAI1 141412Z 24008KT 04/M01 A3019 RMK A01 T00421012  RH  068%=      5-min Rain = 0
KAI1 141413Z 24008KT 04/M01 A3019 RMK A01 T00431012  RH  067%=      5-min Rain = 0
KAI1 141414Z 24008KT 04/M01 A3019 RMK A01 T00441011  RH  067%=      5-min Rain = 0
KAI1 141415Z 23008KT 05/M01 A3019 RMK A01 T00451011  RH  067%=      5-min Rain = 0
KAI1 141416Z 23008KT 05/M01 A3019 RMK A01 T00461011  RH  067%=      5-min Rain = 0
KAI1 141417Z 24008KT 05/M01 A3019 RMK A01 T00451011  RH  067%=      5-min Rain = 0
KAI1 141418Z 24007KT 05/M01 A3019 RMK A01 T00451011  RH  067%=      5-min Rain = 0
KAI1 141419Z 24006KT 05/M01 A3019 RMK A01 T00451011  RH  067%=      5-min Rain = 0
KAI1 141420Z 24007KT 05/M01 A3019 RMK A01 T00451011  RH  067%=      5-min Rain = 0
KAI1 141421Z 24006KT 05/M01 A3019 RMK A01 T00451011  RH  067%=      5-min Rain = 0
KAI1 141422Z 23006KT 04/M01 A3019 RMK A01 T00441011  RH  067%=      5-min Rain = 0
KAI1 141423Z 24006KT 04/M01 A3019 RMK A01 T00441011  RH  068%=      5-min Rain = 0
KAI1 141424Z 24005KT 04/M01 A3019 RMK A01 T00441011  RH  068%=      5-min Rain = 0
KAI1 141425Z 24005KT 04/M01 A3019 RMK A01 T00441011  RH  068%=      5-min Rain = 0
KAI1 141426Z 24006KT 04/M01 A3019 RMK A01 T00441011  RH  068%=      5-min Rain = 0
KAI1 141427Z 24006KT 04/M01 A3019 RMK A01 T00431011  RH  068%=      5-min Rain = 0
KAI1 141428Z 24006KT 04/M01 A3019 RMK A01 T00441011  RH  068%=      5-min Rain = 0
KAI1 141429Z 24006KT 04/M01 A3019 RMK A01 T00441011  RH  067%=      5-min Rain = 0
KAI1 141430Z 24006KT 05/M01 A3019 RMK A01 T00451011  RH  067%=      5-min Rain = 0
KAI1 141431Z 24006KT 05/M01 A3019 RMK A01 T00451011  RH  067%=      5-min Rain = 0
KAI1 141432Z 24005KT 05/M01 A3019 RMK A01 T00451011  RH  067%=      5-min Rain = 0
KAI1 141433Z 24005KT 05/M01 A3019 RMK A01 T00461011  RH  067%=      5-min Rain = 0
KAI1 141434Z 25005KT 05/M01 A3019 RMK A01 T00461011  RH  067%=      5-min Rain = 0
KAI1 141435Z 24005KT 05/M01 A3019 RMK A01 T00461011  RH  067%=      5-min Rain = 0
KAI1 141436Z 25006KT 05/M01 A3019 RMK A01 T00461010  RH  067%=      5-min Rain = 0
KAI1 141437Z 24006KT 05/M01 A3019 RMK A01 T00461011  RH  066%=      5-min Rain = 0
KAI1 141438Z 24005KT 05/M01 A3019 RMK A01 T00471010  RH  066%=      5-min Rain = 0
KAI1 141439Z 23005KT 05/M01 A3019 RMK A01 T00481010  RH  066%=      5-min Rain = 0
KAI1 141440Z 22005KT 05/M01 A3019 RMK A01 T00481010  RH  066%=      5-min Rain = 0
KAI1 141441Z 22006KT 05/M01 A3019 RMK A01 T00481010  RH  066%=      5-min Rain = 0
KAI1 141442Z 22005KT 05/M01 A3019 RMK A01 T00481010  RH  066%=      5-min Rain = 0
KAI1 141443Z 22005KT 05/M01 A3019 RMK A01 T00481009  RH  066%=      5-min Rain = 0
KAI1 141444Z 22005KT 05/M01 A3019 RMK A01 T00481009  RH  066%=      5-min Rain = 0
KAI1 141445Z 22006KT 05/M01 A3019 RMK A01 T00481009  RH  066%=      5-min Rain = 0
KAI1 141446Z 22007KT 05/M01 A3019 RMK A01 T00491010  RH  066%=      5-min Rain = 0
KAI1 141447Z 23007KT 05/M01 A3019 RMK A01 T00491010  RH  066%=      5-min Rain = 0
KAI1 141448Z 23007KT 05/M01 A3019 RMK A01 T00501010  RH  065%=      5-min Rain = 0
KAI1 141449Z 23007KT 05/M01 A3019 RMK A01 T00511010  RH  065%=      5-min Rain = 0
KAI1 141450Z 23007KT 05/M01 A3019 RMK A01 T00521010  RH  065%=      5-min Rain = 0
KAI1 141451Z 23006KT 05/M01 A3019 RMK A01 T00521010  RH  064%=      5-min Rain = 0
KAI1 141452Z 23007KT 05/M01 A3019 RMK A01 T00521011  RH  064%=      5-min Rain = 0
KAI1 141453Z 23008KT 05/M01 A3019 RMK A01 T00531010  RH  064%=      5-min Rain = 0
KAI1 141454Z 23007KT 05/M01 A3019 RMK A01 T00531010  RH  064%=      5-min Rain = 0
KAI1 141455Z 23007KT 05/M01 A3019 RMK A01 T00531010  RH  064%=      5-min Rain = 0
KAI1 141456Z 23007KT 05/M01 A3019 RMK A01 T00541010  RH  064%=      5-min Rain = 0
KAI1 141457Z 23006KT 06/M01 A3019 RMK A01 T00551009  RH  064%=      5-min Rain = 0
KAI1 141458Z 24007KT 06/M01 A3019 RMK A01 T00551009  RH  064%=      5-min Rain = 0
KAI1 141459Z 24008KT 06/M01 A302 RMK A01 T00561008  RH  063%=      5-min Rain = 0
KAI1 141500Z 24007KT 06/M01 A302 RMK A01 T00571008  RH  063%=      5-min Rain = 0
KAI1 141501Z 24007KT 06/M01 A302 RMK A01 T00581007  RH  063%=      5-min Rain = 0
KAI1 141502Z 24007KT 06/M01 A302 RMK A01 T00591007  RH  062%=      5-min Rain = 0
KAI1 141503Z 24008KT 06/M01 A302 RMK A01 T00611006  RH  062%=      5-min Rain = 0
KAI1 141504Z 25008KT 06/M01 A302 RMK A01 T00621006  RH  061%=      5-min Rain = 0
KAI1 141505Z 25007KT 06/M01 A302 RMK A01 T00641006  RH  061%=      5-min Rain = 0
KAI1 141506Z 24007KT 07/M01 A302 RMK A01 T00651005  RH  061%=      5-min Rain = 0
KAI1 141507Z 24008KT 07/M01 A302 RMK A01 T00671005  RH  060%=      5-min Rain = 0
KAI1 141508Z 24008KT 07/M01 A302 RMK A01 T00681006  RH  059%=      5-min Rain = 0
KAI1 141509Z 24007KT 07/M01 A302 RMK A01 T00701005  RH  059%=      5-min Rain = 0
KAI1 141510Z 24007KT 07/M01 A302 RMK A01 T00711006  RH  058%=      5-min Rain = 0
KAI1 141511Z 24007KT 07/M01 A302 RMK A01 T00711006  RH  058%=      5-min Rain = 0
KAI1 141512Z 24006KT 07/M00 A302 RMK A01 T00731004  RH  058%=      5-min Rain = 0
KAI1 141513Z 24006KT 08/M00 A302 RMK A01 T00751004  RH  058%=      5-min Rain = 0
KAI1 141514Z 23007KT 08/M00 A302 RMK A01 T00761004  RH  057%=      5-min Rain = 0
KAI1 141515Z 23007KT 08/M00 A302 RMK A01 T00781003  RH  056%=      5-min Rain = 0
KAI1 141516Z 23007KT 08/M00 A302 RMK A01 T00801003  RH  056%=      5-min Rain = 0
KAI1 141517Z 23007KT 08/M00 A302 RMK A01 T00821002  RH  055%=      5-min Rain = 0
KAI1 141518Z 22007KT 08/M00 A302 RMK A01 T00841002  RH  055%=      5-min Rain = 0
KAI1 141519Z 22007KT 09/M00 A302 RMK A01 T00861001  RH  054%=      5-min Rain = 0
KAI1 141520Z 23007KT 09/00 A302 RMK A01 T008800-0  RH  054%=      5-min Rain = 0
KAI1 141521Z 23009KT 09/M00 A302 RMK A01 T00901001  RH  053%=      5-min Rain = 0
KAI1 141522Z 24008KT 09/M00 A302 RMK A01 T00901002  RH  052%=      5-min Rain = 0
KAI1 141523Z 23010KT 09/M00 A302 RMK A01 T00921002  RH  052%=      5-min Rain = 0
KAI1 141524Z 23010KT 09/M00 A302 RMK A01 T00931002  RH  051%=      5-min Rain = 0
KAI1 141525Z 23010KT 10/M00 A302 RMK A01 T00951001  RH  051%=      5-min Rain = 0
KAI1 141526Z 23009KT 10/M00 A302 RMK A01 T00961002  RH  050%=      5-min Rain = 0
KAI1 141527Z 23009KT 10/M00 A302 RMK A01 T00971001  RH  050%=      5-min Rain = 0
KAI1 141528Z 24008KT 10/M00 A302 RMK A01 T00971002  RH  050%=      5-min Rain = 0
KAI1 141529Z 23010KT 10/M00 A302 RMK A01 T00971003  RH  050%=      5-min Rain = 0
KAI1 141530Z 23008KT 10/M00 A302 RMK A01 T00981003  RH  050%=      5-min Rain = 0
KAI1 141531Z 23009KT 10/M00 A302 RMK A01 T00981001  RH  050%=      5-min Rain = 0
KAI1 141532Z 23009KT 10/M00 A302 RMK A01 T00991001  RH  050%=      5-min Rain = 0
KAI1 141533Z 24008KT 10/00 A302 RMK A01 T01000000  RH  050%=      5-min Rain = 0
KAI1 141534Z 23009KT 10/00 A302 RMK A01 T01020001  RH  049%=      5-min Rain = 0
KAI1 141535Z 23009KT 10/00 A302 RMK A01 T01030001  RH  049%=      5-min Rain = 0
KAI1 141536Z 23011KT 10/00 A302 RMK A01 T01040001  RH  049%=      5-min Rain = 0
KAI1 141537Z 23008KT 11/00 A302 RMK A01 T01050001  RH  048%=      5-min Rain = 0
KAI1 141538Z 24011KT 11/00 A302 RMK A01 T01070002  RH  048%=      5-min Rain = 0
KAI1 141539Z 23012KT 11/00 A302 RMK A01 T01080001  RH  047%=      5-min Rain = 0
KAI1 141540Z 24012KT 11/00 A302 RMK A01 T01090000  RH  047%=      5-min Rain = 0
KAI1 141541Z 23010KT 11/00 A302 RMK A01 T010900-0  RH  047%=      5-min Rain = 0
KAI1 141542Z 23010KT 11/00 A3021 RMK A01 T01090001  RH  047%=      5-min Rain = 0
KAI1 141543Z 23010KT 11/00 A3021 RMK A01 T01110002  RH  047%=      5-min Rain = 0
KAI1 141544Z 23011KT 11/00 A302 RMK A01 T01110001  RH  046%=      5-min Rain = 0
KAI1 141545Z 23010KT 11/00 A302 RMK A01 T01110000  RH  046%=      5-min Rain = 0
KAI1 141546Z 24010KT 11/00 A302 RMK A01 T01120001  RH  046%=      5-min Rain = 0
KAI1 141547Z 24010KT 11/00 A302 RMK A01 T01130001  RH  046%=      5-min Rain = 0
KAI1 141548Z 24009KT 11/00 A302 RMK A01 T01140002  RH  046%=      5-min Rain = 0
KAI1 141549Z 24008KT 12/00 A302 RMK A01 T01150003  RH  046%=      5-min Rain = 0
KAI1 141550Z 24008KT 12/00 A302 RMK A01 T01170003  RH  046%=      5-min Rain = 0
KAI1 141551Z 23009KT 12/00 A302 RMK A01 T01180004  RH  045%=      5-min Rain = 0
KAI1 141552Z 23011KT 12/00 A302 RMK A01 T01200004  RH  045%=      5-min Rain = 0
KAI1 141553Z 23010KT 12/00 A302 RMK A01 T01210004  RH  044%=      5-min Rain = 0
KAI1 141554Z 24009KT 12/00 A302 RMK A01 T01220004  RH  044%=      5-min Rain = 0
KAI1 141555Z 24009KT 12/01 A302 RMK A01 T01230005  RH  044%=      5-min Rain = 0
KAI1 141556Z 24011KT 13/01 A302 RMK A01 T01250005  RH  044%=      5-min Rain = 0
KAI1 141557Z 23011KT 13/00 A302 RMK A01 T01270004  RH  043%=      5-min Rain = 0
KAI1 141558Z 24009KT 13/01 A302 RMK A01 T01280005  RH  043%=      5-min Rain = 0
KAI1 141559Z 24010KT 13/01 A302 RMK A01 T01300006  RH  042%=      5-min Rain = 0
KAI1 141600Z 24010KT 13/01 A302 RMK A01 T01320006  RH  042%=      5-min Rain = 0
KAI1 141601Z 24011KT 13/00 A302 RMK A01 T01330003  RH  041%=      5-min Rain = 0
KAI1 141602Z 24010KT 13/00 A302 RMK A01 T01330004  RH  041%=      5-min Rain = 0
KAI1 141603Z 24009KT 13/00 A302 RMK A01 T01330003  RH  041%=      5-min Rain = 0
KAI1 141604Z 24009KT 13/00 A302 RMK A01 T01340004  RH  041%=      5-min Rain = 0
KAI1 141605Z 24008KT 14/00 A302 RMK A01 T01350004  RH  041%=      5-min Rain = 0
KAI1 141606Z 24010KT 14/01 A302 RMK A01 T01360005  RH  041%=      5-min Rain = 0
KAI1 141607Z 25009KT 14/00 A302 RMK A01 T01370004  RH  040%=      5-min Rain = 0
KAI1 141608Z 24009KT 14/01 A302 RMK A01 T01380005  RH  040%=      5-min Rain = 0
KAI1 141609Z 25010KT 14/01 A302 RMK A01 T01390005  RH  040%=      5-min Rain = 0
KAI1 141610Z 25010KT 14/00 A302 RMK A01 T01400003  RH  039%=      5-min Rain = 0
KAI1 141611Z 24013KT 14/00 A302 RMK A01 T01410003  RH  039%=      5-min Rain = 0
KAI1 141612Z 24013KT 14/00 A302 RMK A01 T01410001  RH  038%=      5-min Rain = 0
KAI1 141613Z 23011KT 14/00 A302 RMK A01 T01410002  RH  039%=      5-min Rain = 0
KAI1 141614Z 24010KT 14/00 A302 RMK A01 T01410002  RH  039%=      5-min Rain = 0
KAI1 141615Z 23011KT 14/00 A302 RMK A01 T01420003  RH  039%=      5-min Rain = 0
KAI1 141616Z 24012KT 14/00 A302 RMK A01 T01430003  RH  038%=      5-min Rain = 0
KAI1 141617Z 24010KT 14/00 A302 RMK A01 T01440002  RH  038%=      5-min Rain = 0
KAI1 141618Z 23009KT 15/01 A3019 RMK A01 T01460005  RH  038%=      5-min Rain = 0
KAI1 141619Z 24011G16KT 15/01 A3019 RMK A01 T01500006  RH  037%=      5-min Rain = 0
KAI1 141620Z 23011KT 15/00 A3019 RMK A01 T01520003  RH  036%=      5-min Rain = 0
KAI1 141621Z 23010KT 15/00 A3019 RMK A01 T01530003  RH  036%=      5-min Rain = 0
KAI1 141622Z 23012KT 16/01 A302 RMK A01 T01560005  RH  036%=      5-min Rain = 0
KAI1 141623Z 23013KT 16/00 A302 RMK A01 T01570004  RH  035%=      5-min Rain = 0
KAI1 141624Z 22013KT 16/00 A302 RMK A01 T01570002  RH  035%=      5-min Rain = 0
KAI1 141625Z 23012KT 16/00 A302 RMK A01 T01560003  RH  035%=      5-min Rain = 0
KAI1 141626Z 23013KT 16/00 A302 RMK A01 T01570001  RH  035%=      5-min Rain = 0
KAI1 141627Z 23012KT 16/00 A302 RMK A01 T01570002  RH  035%=      5-min Rain = 0
KAI1 141628Z 23011KT 16/00 A302 RMK A01 T01570002  RH  035%=      5-min Rain = 0
KAI1 141629Z 23013KT 16/00 A302 RMK A01 T01590002  RH  034%=      5-min Rain = 0
KAI1 141630Z 23014KT 16/00 A302 RMK A01 T01620001  RH  034%=      5-min Rain = 0
KAI1 141631Z 22014KT 17/00 A302 RMK A01 T01650002  RH  033%=      5-min Rain = 0
KAI1 141632Z 23014KT 17/00 A302 RMK A01 T01660001  RH  033%=      5-min Rain = 0
KAI1 141633Z 22016KT 17/00 A302 RMK A01 T016600-0  RH  032%=      5-min Rain = 0
KAI1 141634Z 23015KT 17/00 A3019 RMK A01 T01670000  RH  032%=      5-min Rain = 0
KAI1 141635Z 23014KT 17/M00 A3019 RMK A01 T01671001  RH  032%=      5-min Rain = 0
KAI1 141636Z 24014KT 17/M00 A3019 RMK A01 T01681001  RH  032%=      5-min Rain = 0
KAI1 141637Z 23014KT 17/M00 A3019 RMK A01 T01691001  RH  031%=      5-min Rain = 0
KAI1 141638Z 24012KT 17/00 A3019 RMK A01 T017100-0  RH  031%=      5-min Rain = 0
KAI1 141639Z 23015KT 17/00 A3019 RMK A01 T01740002  RH  031%=      5-min Rain = 0
KAI1 141640Z 23014KT 18/00 A3019 RMK A01 T017600-0  RH  030%=      5-min Rain = 0
KAI1 141641Z 23013KT 18/M00 A3019 RMK A01 T01761001  RH  030%=      5-min Rain = 0
KAI1 141642Z 24012KT 18/00 A3019 RMK A01 T01770001  RH  030%=      5-min Rain = 0
KAI1 141643Z 23012KT 18/00 A3019 RMK A01 T01790001  RH  030%=      5-min Rain = 0
KAI1 141644Z 24013KT 18/00 A3019 RMK A01 T01800000  RH  030%=      5-min Rain = 0
KAI1 141645Z 24012KT 18/00 A3019 RMK A01 T017900-0  RH  030%=      5-min Rain = 0
KAI1 141646Z 23013KT 18/M00 A3019 RMK A01 T01791001  RH  030%=      5-min Rain = 0
KAI1 141647Z 23012KT 18/00 A3019 RMK A01 T01810000  RH  029%=      5-min Rain = 0
KAI1 141648Z 22013KT 18/00 A3019 RMK A01 T01830001  RH  029%=      5-min Rain = 0
KAI1 141649Z 22014KT 18/M00 A3019 RMK A01 T01841001  RH  029%=      5-min Rain = 0
KAI1 141650Z 23014KT 19/M00 A3019 RMK A01 T01851002  RH  028%=      5-min Rain = 0
KAI1 141651Z 23013KT 19/M00 A3019 RMK A01 T01851003  RH  028%=      5-min Rain = 0
KAI1 141652Z 23015KT 19/M00 A3019 RMK A01 T01871003  RH  028%=      5-min Rain = 0
KAI1 141653Z 23014KT 19/M00 A3019 RMK A01 T01881004  RH  027%=      5-min Rain = 0
KAI1 141654Z 23014KT 19/M00 A3019 RMK A01 T01891004  RH  027%=      5-min Rain = 0
KAI1 141655Z 23016KT 19/M00 A3019 RMK A01 T01911004  RH  027%=      5-min Rain = 0
KAI1 141656Z 23017KT 19/M01 A3019 RMK A01 T01921007  RH  026%=      5-min Rain = 0
KAI1 141657Z 22017KT 19/M01 A3019 RMK A01 T01911008  RH  026%=      5-min Rain = 0
KAI1 141658Z 23015KT 19/M01 A3019 RMK A01 T01921007  RH  026%=      5-min Rain = 0
KAI1 141659Z 23016KT 19/M01 A3019 RMK A01 T01931006  RH  026%=      5-min Rain = 0
KAI1 141700Z 22016KT 19/M01 A3019 RMK A01 T01941007  RH  026%=      5-min Rain = 0
KAI1 141701Z 22016KT 19/M01 A3019 RMK A01 T01941008  RH  026%=      5-min Rain = 0
KAI1 141702Z 22017KT 19/M01 A3019 RMK A01 T01941008  RH  026%=      5-min Rain = 0
KAI1 141703Z 23016KT 19/M01 A3019 RMK A01 T01931007  RH  026%=      5-min Rain = 0
KAI1 141704Z 23016KT 19/M01 A3019 RMK A01 T01931007  RH  026%=      5-min Rain = 0
KAI1 141705Z 22015KT 19/M01 A3019 RMK A01 T01941007  RH  026%=      5-min Rain = 0
KAI1 141706Z 23014KT 20/M00 A3019 RMK A01 T01961004  RH  026%=      5-min Rain = 0
KAI1 141707Z 23016KT 20/M01 A3018 RMK A01 T01971005  RH  026%=      5-min Rain = 0
KAI1 141708Z 23015KT 20/M01 A3018 RMK A01 T01971007  RH  025%=      5-min Rain = 0
KAI1 141709Z 23014KT 20/M01 A3018 RMK A01 T01961007  RH  026%=      5-min Rain = 0
KAI1 141710Z 22014KT 20/M00 A3018 RMK A01 T01971004  RH  026%=      5-min Rain = 0
KAI1 141711Z 23016KT 20/M01 A3018 RMK A01 T01981005  RH  025%=      5-min Rain = 0
KAI1 141712Z 23015KT 20/M01 A3018 RMK A01 T01991006  RH  025%=      5-min Rain = 0
KAI1 141713Z 23015KT 20/M01 A3018 RMK A01 T01991006  RH  025%=      5-min Rain = 0
KAI1 141714Z 22013KT 20/M00 A3018 RMK A01 T01991003  RH  026%=      5-min Rain = 0
KAI1 141715Z 21015KT 20/M00 A3018 RMK A01 T02021003  RH  025%=      5-min Rain = 0
KAI1 141716Z 22016KT 20/M00 A3018 RMK A01 T02021004  RH  025%=      5-min Rain = 0
KAI1 141717Z 22014KT 20/M00 A3018 RMK A01 T02011002  RH  026%=      5-min Rain = 0
KAI1 141718Z 23015KT 20/M00 A3018 RMK A01 T02011003  RH  025%=      5-min Rain = 0
KAI1 141719Z 22013KT 20/M00 A3018 RMK A01 T02011003  RH  025%=      5-min Rain = 0
KAI1 141720Z 22015KT 20/M00 A3018 RMK A01 T02031002  RH  025%=      5-min Rain = 0
KAI1 141721Z 22012KT 20/M00 A3018 RMK A01 T02041002  RH  025%=      5-min Rain = 0
KAI1 141722Z 22014KT 21/M00 A3018 RMK A01 T02071001  RH  025%=      5-min Rain = 0
KAI1 141723Z 22013KT 21/M00 A3018 RMK A01 T02091001  RH  025%=      5-min Rain = 0
KAI1 141724Z 23014KT 21/M00 A3018 RMK A01 T02091002  RH  025%=      5-min Rain = 0
KAI1 141725Z 22013G18KT 21/M00 A3018 RMK A01 T02091001  RH  025%=      5-min Rain = 0
KAI1 141726Z 22011KT 21/00 A3018 RMK A01 T02120000  RH  024%=      5-min Rain = 0
KAI1 141727Z 21014KT 21/00 A3018 RMK A01 T021400-0  RH  024%=      5-min Rain = 0
KAI1 141728Z 22013KT 22/M00 A3018 RMK A01 T02151002  RH  024%=      5-min Rain = 0
KAI1 141729Z 22013KT 21/M00 A3017 RMK A01 T02141003  RH  023%=      5-min Rain = 0
KAI1 141730Z 22012KT 21/M00 A3017 RMK A01 T02131004  RH  023%=      5-min Rain = 0
KAI1 141731Z 22013KT 21/M00 A3017 RMK A01 T02141003  RH  023%=      5-min Rain = 0
KAI1 141732Z 21012KT 22/M01 A3017 RMK A01 T02171007  RH  022%=      5-min Rain = 0
KAI1 141733Z 21016KT 22/M01 A3017 RMK A01 T02191009  RH  022%=      5-min Rain = 0
KAI1 141734Z 21017KT 22/M01 A3017 RMK A01 T02211010  RH  021%=      5-min Rain = 0
KAI1 141735Z 21017KT 22/M01 A3017 RMK A01 T02211012  RH  021%=      5-min Rain = 0
KAI1 141736Z 21016KT 22/M02 A3017 RMK A01 T02201015  RH  021%=      5-min Rain = 0
KAI1 141737Z 21014KT 22/M01 A3017 RMK A01 T02201013  RH  021%=      5-min Rain = 0
KAI1 141738Z 23014KT 22/M01 A3017 RMK A01 T02221012  RH  021%=      5-min Rain = 0
KAI1 141739Z 22014KT 22/M01 A3016 RMK A01 T02241013  RH  021%=      5-min Rain = 0
KAI1 141740Z 22015KT 23/M01 A3016 RMK A01 T02251014  RH  020%=      5-min Rain = 0
KAI1 141741Z 22014KT 22/M02 A3016 RMK A01 T02241017  RH  020%=      5-min Rain = 0
KAI1 141742Z 22015KT 22/M02 A3016 RMK A01 T02241016  RH  020%=      5-min Rain = 0
KAI1 141743Z 22014KT 23/M02 A3016 RMK A01 T02261016  RH  020%=      5-min Rain = 0
KAI1 141744Z 21017KT 23/M02 A3016 RMK A01 T02281017  RH  019%=      5-min Rain = 0
KAI1 141745Z 21016KT 23/M02 A3016 RMK A01 T02261022  RH  019%=      5-min Rain = 0
KAI1 141746Z 22017KT 23/M02 A3016 RMK A01 T02261021  RH  019%=      5-min Rain = 0
KAI1 141747Z 23013KT 23/M02 A3016 RMK A01 T02251018  RH  020%=      5-min Rain = 0
KAI1 141748Z 23014KT 23/M02 A3016 RMK A01 T02251016  RH  020%=      5-min Rain = 0
KAI1 141749Z 22015KT 23/M02 A3016 RMK A01 T02261016  RH  020%=      5-min Rain = 0
KAI1 141750Z 21019KT 23/M02 A3016 RMK A01 T02271018  RH  020%=      5-min Rain = 0
KAI1 141751Z 21017KT 23/M02 A3015 RMK A01 T02261021  RH  019%=      5-min Rain = 0
KAI1 141752Z 22016KT 23/M02 A3015 RMK A01 T02251020  RH  019%=      5-min Rain = 0
KAI1 141753Z 22015KT 23/M02 A3015 RMK A01 T02261021  RH  019%=      5-min Rain = 0
KAI1 141754Z 21020KT 23/M02 A3015 RMK A01 T02291021  RH  019%=      5-min Rain = 0
KAI1 141755Z 22017G22KT 23/M02 A3015 RMK A01 T02301023  RH  018%=      5-min Rain = 0
KAI1 141756Z 22017KT 23/M03 A3015 RMK A01 T02291027  RH  018%=      5-min Rain = 0
KAI1 141757Z 22016KT 23/M03 A3015 RMK A01 T02301025  RH  018%=      5-min Rain = 0
KAI1 141758Z 22017KT 23/M02 A3015 RMK A01 T02311021  RH  019%=      5-min Rain = 0
KAI1 141759Z 22015KT 23/M02 A3015 RMK A01 T02331019  RH  019%=      5-min Rain = 0
KAI1 141800Z 22015KT 23/M02 A3015 RMK A01 T02321022  RH  018%=      5-min Rain = 0
KAI1 141801Z 21017KT 23/M02 A3015 RMK A01 T02311021  RH  019%=      5-min Rain = 0
KAI1 141802Z 22019KT 23/M02 A3015 RMK A01 T02311023  RH  018%=      5-min Rain = 0
KAI1 141803Z 23018KT 23/M02 A3015 RMK A01 T02321023  RH  018%=      5-min Rain = 0
KAI1 141804Z 21018KT 23/M02 A3015 RMK A01 T02321024  RH  018%=      5-min Rain = 0
KAI1 141805Z 21018KT 23/M03 A3015 RMK A01 T02341025  RH  018%=      5-min Rain = 0
KAI1 141806Z 21015KT 23/M03 A3015 RMK A01 T02331026  RH  018%=      5-min Rain = 0
KAI1 141807Z 21019KT 23/M03 A3015 RMK A01 T02331025  RH  018%=      5-min Rain = 0
KAI1 141808Z 22018KT 23/M03 A3015 RMK A01 T02321030  RH  017%=      5-min Rain = 0
KAI1 141809Z 22015KT 23/M03 A3015 RMK A01 T02321028  RH  017%=      5-min Rain = 0
KAI1 141810Z 21015KT 23/M03 A3015 RMK A01 T02331026  RH  018%=      5-min Rain = 0
KAI1 141811Z 22016KT 24/M03 A3015 RMK A01 T02351026  RH  017%=      5-min Rain = 0
KAI1 141812Z 22016KT 24/M03 A3015 RMK A01 T02371029  RH  017%=      5-min Rain = 0
KAI1 141813Z 21017KT 24/M03 A3014 RMK A01 T02381031  RH  016%=      5-min Rain = 0
KAI1 141814Z 22016KT 24/M03 A3014 RMK A01 T02381030  RH  017%=      5-min Rain = 0
KAI1 141815Z 22018KT 24/M03 A3014 RMK A01 T02381032  RH  016%=      5-min Rain = 0
KAI1 141816Z 22016KT 24/M03 A3014 RMK A01 T02381033  RH  016%=      5-min Rain = 0
KAI1 141817Z 21016G21KT 24/M03 A3014 RMK A01 T02381032  RH  016%=      5-min Rain = 0
KAI1 141818Z 21016KT 24/M03 A3014 RMK A01 T02401032  RH  016%=      5-min Rain = 0
KAI1 141819Z 22016KT 24/M03 A3014 RMK A01 T02411032  RH  016%=      5-min Rain = 0
KAI1 141820Z 23015KT 24/M03 A3014 RMK A01 T02411031  RH  016%=      5-min Rain = 0
KAI1 141821Z 22016KT 24/M03 A3014 RMK A01 T02401030  RH  016%=      5-min Rain = 0
KAI1 141822Z 22017KT 24/M03 A3014 RMK A01 T02421031  RH  016%=      5-min Rain = 0
KAI1 141823Z 21016KT 24/M03 A3014 RMK A01 T02411032  RH  016%=      5-min Rain = 0
KAI1 141824Z 21016KT 24/M03 A3014 RMK A01 T02381032  RH  016%=      5-min Rain = 0
KAI1 141825Z 23015KT 24/M03 A3014 RMK A01 T02401032  RH  016%=      5-min Rain = 0
KAI1 141826Z 23014KT 24/M03 A3014 RMK A01 T02421034  RH  016%=      5-min Rain = 0
KAI1 141827Z 23014KT 24/M03 A3014 RMK A01 T02431030  RH  016%=      5-min Rain = 0
KAI1 141828Z 22015KT 25/M03 A3013 RMK A01 T02451033  RH  016%=      5-min Rain = 0
KAI1 141829Z 23015G21KT 24/M04 A3013 RMK A01 T02431035  RH  016%=      5-min Rain = 0
KAI1 141830Z 22014KT 24/M03 A3013 RMK A01 T02431033  RH  016%=      5-min Rain = 0
KAI1 141831Z 23017KT 25/M03 A3013 RMK A01 T02461033  RH  016%=      5-min Rain = 0
KAI1 141832Z 23016KT 24/M04 A3013 RMK A01 T02441036  RH  015%=      5-min Rain = 0
KAI1 141833Z 21015KT 24/M04 A3013 RMK A01 T02401036  RH  016%=      5-min Rain = 0
KAI1 141834Z 23019KT 24/M03 A3013 RMK A01 T02401033  RH  016%=      5-min Rain = 0
KAI1 141835Z 23016KT 24/M03 A3013 RMK A01 T02411033  RH  016%=      5-min Rain = 0
KAI1 141836Z 23016KT 24/M03 A3013 RMK A01 T02411033  RH  016%=      5-min Rain = 0
KAI1 141837Z 23016KT 24/M03 A3013 RMK A01 T02441034  RH  016%=      5-min Rain = 0
KAI1 141838Z 23018KT 25/M03 A3013 RMK A01 T02451034  RH  016%=      5-min Rain = 0
KAI1 141839Z 23018KT 24/M03 A3013 RMK A01 T02431032  RH  016%=      5-min Rain = 0
KAI1 141840Z 23016KT 24/M03 A3013 RMK A01 T02421034  RH  016%=      5-min Rain = 0
KAI1 141841Z 24017KT 24/M04 A3013 RMK A01 T02421035  RH  016%=      5-min Rain = 0
KAI1 141842Z 23017KT 24/M03 A3013 RMK A01 T02421033  RH  016%=      5-min Rain = 0
KAI1 141843Z 23013KT 24/M03 A3013 RMK A01 T02431032  RH  016%=      5-min Rain = 0
KAI1 141844Z 23013KT 25/M03 A3013 RMK A01 T02471028  RH  016%=      5-min Rain = 0
KAI1 141845Z 22014KT 25/M03 A3013 RMK A01 T02501031  RH  015%=      5-min Rain = 0
KAI1 141846Z 22015KT 25/M03 A3013 RMK A01 T02461033  RH  016%=      5-min Rain = 0
KAI1 141847Z 22021KT 25/M03 A3013 RMK A01 T02451034  RH  015%=      5-min Rain = 0
KAI1 141848Z 22021KT 25/M04 A3013 RMK A01 T02451037  RH  015%=      5-min Rain = 0
KAI1 141849Z 23017KT 25/M04 A3013 RMK A01 T02451037  RH  015%=      5-min Rain = 0
KAI1 141850Z 24016KT 25/M04 A3013 RMK A01 T02451036  RH  015%=      5-min Rain = 0
KAI1 141851Z 23017KT 25/M03 A3013 RMK A01 T02451034  RH  015%=      5-min Rain = 0
KAI1 141852Z 24016G21KT 25/M03 A3013 RMK A01 T02451033  RH  016%=      5-min Rain = 0
KAI1 141853Z 23013KT 25/M04 A3013 RMK A01 T02451035  RH  015%=      5-min Rain = 0
KAI1 141854Z 21018KT 24/M03 A3013 RMK A01 T02441034  RH  016%=      5-min Rain = 0
KAI1 141855Z 21017KT 24/M03 A3013 RMK A01 T02441033  RH  016%=      5-min Rain = 0
KAI1 141856Z 21014KT 25/M03 A3013 RMK A01 T02461033  RH  015%=      5-min Rain = 0
KAI1 141857Z 22013KT 25/M03 A3012 RMK A01 T02461033  RH  016%=      5-min Rain = 0
KAI1 141858Z 22015KT 25/M03 A3012 RMK A01 T02461033  RH  016%=      5-min Rain = 0
KAI1 141859Z 22019KT 25/M04 A3012 RMK A01 T02471035  RH  015%=      5-min Rain = 0
KAI1 141900Z 22018KT 25/M04 A3012 RMK A01 T02471039  RH  015%=      5-min Rain = 0
KAI1 141901Z 21018KT 25/M04 A3012 RMK A01 T02471039  RH  015%=      5-min Rain = 0
KAI1 141902Z 22014KT 25/M04 A3012 RMK A01 T02481037  RH  015%=      5-min Rain = 0
KAI1 141903Z 21017KT 25/M03 A3012 RMK A01 T02521034  RH  015%=      5-min Rain = 0
KAI1 141904Z 21018KT 25/M04 A3012 RMK A01 T02521036  RH  015%=      5-min Rain = 0
KAI1 141905Z 21016KT 25/M04 A3012 RMK A01 T02491036  RH  015%=      5-min Rain = 0
KAI1 141906Z 22017KT 25/M04 A3011 RMK A01 T02501037  RH  015%=      5-min Rain = 0
KAI1 141907Z 21017KT 25/M04 A3011 RMK A01 T02511042  RH  014%=      5-min Rain = 0
KAI1 141908Z 21017KT 25/M04 A3011 RMK A01 T02541041  RH  014%=      5-min Rain = 0
KAI1 141909Z 21015KT 26/M04 A3011 RMK A01 T02551039  RH  014%=      5-min Rain = 0
KAI1 141910Z 21013KT 25/M04 A3011 RMK A01 T02541040  RH  014%=      5-min Rain = 0
KAI1 141911Z 22013KT 25/M04 A3011 RMK A01 T02531039  RH  014%=      5-min Rain = 0
KAI1 141912Z 21017G22KT 26/M04 A3011 RMK A01 T02561039  RH  014%=      5-min Rain = 0
KAI1 141913Z 22021KT 26/M04 A3011 RMK A01 T02561043  RH  014%=      5-min Rain = 0
KAI1 141914Z 22017KT 25/M05 A3011 RMK A01 T02541045  RH  014%=      5-min Rain = 0
KAI1 141915Z 22016G21KT 26/M05 A3011 RMK A01 T02551046  RH  013%=      5-min Rain = 0
KAI1 141916Z 22021KT 26/M05 A301 RMK A01 T02551047  RH  013%=      5-min Rain = 0
KAI1 141917Z 22022KT 25/M05 A301 RMK A01 T02531052  RH  013%=      5-min Rain = 0
KAI1 141918Z 22019G24KT 25/M05 A301 RMK A01 T02521049  RH  013%=      5-min Rain = 0
KAI1 141919Z 21019KT 25/M05 A301 RMK A01 T02531048  RH  013%=      5-min Rain = 0
KAI1 141920Z 22017KT 25/M05 A301 RMK A01 T02521047  RH  013%=      5-min Rain = 0
KAI1 141921Z 22015KT 25/M05 A301 RMK A01 T02531045  RH  014%=      5-min Rain = 0
KAI1 141922Z 23016KT 25/M04 A301 RMK A01 T02541044  RH  014%=      5-min Rain = 0
KAI1 141923Z 23015KT 26/M04 A301 RMK A01 T02561044  RH  013%=      5-min Rain = 0
KAI1 141924Z 22018G23KT 26/M05 A301 RMK A01 T02581045  RH  013%=      5-min Rain = 0
KAI1 141925Z 22019KT 26/M05 A301 RMK A01 T02561049  RH  013%=      5-min Rain = 0
KAI1 141926Z 22019KT 25/M05 A301 RMK A01 T02541049  RH  013%=      5-min Rain = 0
KAI1 141927Z 22018KT 25/M05 A301 RMK A01 T02541048  RH  013%=      5-min Rain = 0
KAI1 141928Z 22018KT 25/M05 A301 RMK A01 T02541051  RH  013%=      5-min Rain = 0
KAI1 141929Z 21020KT 25/M05 A3009 RMK A01 T02531051  RH  013%=      5-min Rain = 0
KAI1 141930Z 22020G25KT 25/M05 A3009 RMK A01 T02541053  RH  013%=      5-min Rain = 0
KAI1 141931Z 22021KT 25/M05 A3009 RMK A01 T02541052  RH  013%=      5-min Rain = 0
KAI1 141932Z 22016KT 25/M05 A3009 RMK A01 T02531050  RH  013%=      5-min Rain = 0
KAI1 141933Z 22018G27KT 26/M05 A3009 RMK A01 T02551051  RH  013%=      5-min Rain = 0
KAI1 141934Z 21021G29KT 26/M05 A3009 RMK A01 T02551053  RH  013%=      5-min Rain = 0
KAI1 141935Z 22020KT 26/M05 A3009 RMK A01 T02561052  RH  013%=      5-min Rain = 0
KAI1 141936Z 23017KT 26/M05 A3009 RMK A01 T02571054  RH  012%=      5-min Rain = 0
KAI1 141937Z 23015G24KT 26/M06 A3009 RMK A01 T02551055  RH  012%=      5-min Rain = 0
KAI1 141938Z 23022KT 26/M05 A3009 RMK A01 T02571054  RH  012%=      5-min Rain = 0
KAI1 141939Z 22019KT 26/M06 A3009 RMK A01 T02581055  RH  012%=      5-min Rain = 0
KAI1 141940Z 23019KT 26/M06 A3009 RMK A01 T02581057  RH  012%=      5-min Rain = 0
KAI1 141941Z 23019KT 26/M06 A3009 RMK A01 T02571058  RH  012%=      5-min Rain = 0
KAI1 141942Z 22021G26KT 26/M06 A3009 RMK A01 T02571061  RH  012%=      5-min Rain = 0
KAI1 141943Z 22019KT 26/M06 A3009 RMK A01 T02581057  RH  012%=      5-min Rain = 0
KAI1 141944Z 23018KT 26/M06 A3009 RMK A01 T02601055  RH  012%=      5-min Rain = 0
KAI1 141945Z 23018KT 26/M05 A3009 RMK A01 T02601054  RH  012%=      5-min Rain = 0
KAI1 141946Z 23016G21KT 26/M06 A3009 RMK A01 T02601057  RH  012%=      5-min Rain = 0
KAI1 141947Z 22018KT 26/M06 A3009 RMK A01 T02571058  RH  012%=      5-min Rain = 0
KAI1 141948Z 22018KT 26/M06 A3009 RMK A01 T02571056  RH  012%=      5-min Rain = 0
KAI1 141949Z 23021KT 26/M06 A3008 RMK A01 T02581056  RH  012%=      5-min Rain = 0
KAI1 141950Z 22021G27KT 26/M06 A3008 RMK A01 T02591058  RH  012%=      5-min Rain = 0
KAI1 141951Z 22023KT 26/M06 A3008 RMK A01 T02591059  RH  012%=      5-min Rain = 0
KAI1 141952Z 22024KT 26/M06 A3008 RMK A01 T02601059  RH  012%=      5-min Rain = 0
KAI1 141953Z 23023KT 26/M06 A3008 RMK A01 T02591059  RH  012%=      5-min Rain = 0
KAI1 141954Z 23025G30KT 26/M06 A3008 RMK A01 T02581060  RH  012%=      5-min Rain = 0
KAI1 141955Z 22023G28KT 26/M06 A3008 RMK A01 T02591060  RH  012%=      5-min Rain = 0
KAI1 141956Z 22024KT 26/M06 A3008 RMK A01 T02611060  RH  012%=      5-min Rain = 0
KAI1 141957Z 22020KT 26/M06 A3008 RMK A01 T02601060  RH  012%=      5-min Rain = 0
KAI1 141958Z 22017G26KT 26/M06 A3008 RMK A01 T02591058  RH  012%=      5-min Rain = 0
KAI1 141959Z 24020G26KT 26/M06 A3008 RMK A01 T02611055  RH  012%=      5-min Rain = 0
KAI1 142000Z 24019KT 26/M06 A3008 RMK A01 T02601055  RH  012%=      5-min Rain = 0
KAI1 142001Z 23023KT 26/M06 A3008 RMK A01 T02601055  RH  012%=      5-min Rain = 0
KAI1 142002Z 23018KT 26/M06 A3008 RMK A01 T02601059  RH  012%=      5-min Rain = 0
KAI1 142003Z 22017G24KT 26/M06 A3008 RMK A01 T02601057  RH  012%=      5-min Rain = 0
KAI1 142004Z 22019KT 26/M06 A3007 RMK A01 T02601056  RH  012%=      5-min Rain = 0
KAI1 142005Z 22022KT 26/M06 A3007 RMK A01 T02601056  RH  012%=      5-min Rain = 0
KAI1 142006Z 21021KT 26/M06 A3007 RMK A01 T02601056  RH  012%=      5-min Rain = 0
KAI1 142007Z 22019KT 26/M06 A3007 RMK A01 T02591057  RH  012%=      5-min Rain = 0
KAI1 142008Z 22021KT 26/M06 A3007 RMK A01 T02581055  RH  012%=      5-min Rain = 0
KAI1 142009Z 21021KT 26/M06 A3007 RMK A01 T02581056  RH  012%=      5-min Rain = 0
KAI1 142010Z 23020KT 26/M06 A3007 RMK A01 T02591056  RH  012%=      5-min Rain = 0
KAI1 142011Z 23020KT 26/M06 A3007 RMK A01 T02601059  RH  012%=      5-min Rain = 0
KAI1 142012Z 22022KT 26/M06 A3007 RMK A01 T02611058  RH  012%=      5-min Rain = 0
KAI1 142013Z 23022KT 26/M06 A3006 RMK A01 T02601058  RH  012%=      5-min Rain = 0
KAI1 142014Z 24019KT 26/M06 A3007 RMK A01 T02591057  RH  012%=      5-min Rain = 0
KAI1 142015Z 24014G19KT 26/M06 A3007 RMK A01 T02601056  RH  012%=      5-min Rain = 0
KAI1 142016Z 23016KT 26/M05 A3006 RMK A01 T02631053  RH  012%=      5-min Rain = 0
KAI1 142017Z 24016KT 27/M05 A3006 RMK A01 T02661052  RH  012%=      5-min Rain = 0
KAI1 142018Z 23015G20KT 27/M05 A3006 RMK A01 T02661054  RH  012%=      5-min Rain = 0
KAI1 142019Z 23020KT 27/M05 A3006 RMK A01 T02661054  RH  012%=      5-min Rain = 0
KAI1 142020Z 23020KT 27/M06 A3006 RMK A01 T02651056  RH  012%=      5-min Rain = 0
KAI1 142021Z 23018KT 26/M06 A3006 RMK A01 T02641055  RH  012%=      5-min Rain = 0
KAI1 142022Z 24019KT 26/M06 A3006 RMK A01 T02621056  RH  012%=      5-min Rain = 0
KAI1 142023Z 24022KT 26/M06 A3006 RMK A01 T02621055  RH  012%=      5-min Rain = 0
KAI1 142024Z 24022KT 26/M06 A3006 RMK A01 T02631056  RH  012%=      5-min Rain = 0
KAI1 142025Z 25020KT 26/M06 A3006 RMK A01 T02631056  RH  012%=      5-min Rain = 0
KAI1 142026Z 23018KT 26/M06 A3006 RMK A01 T02631056  RH  012%=      5-min Rain = 0
KAI1 142027Z 23017KT 26/M06 A3006 RMK A01 T02631055  RH  012%=      5-min Rain = 0
KAI1 142028Z 24016G22KT 26/M05 A3006 RMK A01 T02641053  RH  012%=      5-min Rain = 0
KAI1 142029Z 23021KT 27/M05 A3006 RMK A01 T02671053  RH  012%=      5-min Rain = 0
KAI1 142030Z 23018KT 27/M05 A3006 RMK A01 T02651054  RH  012%=      5-min Rain = 0
KAI1 142031Z 23016KT 26/M06 A3005 RMK A01 T02641055  RH  012%=      5-min Rain = 0
KAI1 142032Z 24019G24KT 26/M05 A3005 RMK A01 T02641052  RH  012%=      5-min Rain = 0
KAI1 142033Z 23019KT 27/M05 A3005 RMK A01 T02661052  RH  012%=      5-min Rain = 0
KAI1 142034Z 22020KT 27/M05 A3005 RMK A01 T02681052  RH  012%=      5-min Rain = 0
KAI1 142035Z 22022KT 27/M05 A3005 RMK A01 T02671051  RH  012%=      5-min Rain = 0
KAI1 142036Z 22020KT 27/M05 A3005 RMK A01 T02661052  RH  012%=      5-min Rain = 0
KAI1 142037Z 22020KT 26/M05 A3005 RMK A01 T02641051  RH  012%=      5-min Rain = 0
KAI1 142038Z 23016KT 27/M05 A3005 RMK A01 T02651052  RH  012%=      5-min Rain = 0
KAI1 142039Z 22019G25KT 26/M05 A3005 RMK A01 T02641050  RH  012%=      5-min Rain = 0
KAI1 142040Z 23023G28KT 27/M05 A3004 RMK A01 T02661048  RH  012%=      5-min Rain = 0
KAI1 142041Z 23020G25KT 27/M05 A3005 RMK A01 T02661048  RH  012%=      5-min Rain = 0
KAI1 142042Z 24018KT 27/M05 A3005 RMK A01 T02651049  RH  012%=      5-min Rain = 0
KAI1 142043Z 24021KT 27/M05 A3005 RMK A01 T02661048  RH  012%=      5-min Rain = 0
KAI1 142044Z 24021KT 27/M05 A3004 RMK A01 T02661050  RH  012%=      5-min Rain = 0
KAI1 142045Z 24022KT 27/M05 A3004 RMK A01 T02651048  RH  012%=      5-min Rain = 0
KAI1 142046Z 23022KT 27/M05 A3004 RMK A01 T02661048  RH  012%=      5-min Rain = 0
KAI1 142047Z 23019KT 27/M05 A3004 RMK A01 T02661048  RH  012%=      5-min Rain = 0
KAI1 142048Z 22022KT 27/M05 A3004 RMK A01 T02651049  RH  012%=      5-min Rain = 0
KAI1 142049Z 22020KT 26/M05 A3004 RMK A01 T02641049  RH  012%=      5-min Rain = 0
KAI1 142050Z 22023G30KT 26/M05 A3004 RMK A01 T02641049  RH  012%=      5-min Rain = 0
KAI1 142051Z 22023KT 27/M05 A3004 RMK A01 T02661047  RH  012%=      5-min Rain = 0
KAI1 142052Z 22022KT 27/M05 A3004 RMK A01 T02671047  RH  012%=      5-min Rain = 0
KAI1 142053Z 22019KT 27/M05 A3004 RMK A01 T02671048  RH  012%=      5-min Rain = 0
KAI1 142054Z 23016KT 27/M05 A3004 RMK A01 T02671048  RH  012%=      5-min Rain = 0
KAI1 142055Z 23019KT 27/M05 A3004 RMK A01 T02661049  RH  012%=      5-min Rain = 0
KAI1 142056Z 23018KT 27/M05 A3004 RMK A01 T02651050  RH  012%=      5-min Rain = 0
KAI1 142057Z 23018KT 27/M05 A3004 RMK A01 T02651049  RH  012%=      5-min Rain = 0
KAI1 142058Z 22020KT 27/M05 A3004 RMK A01 T02651049  RH  012%=      5-min Rain = 0
KAI1 142059Z 23017KT 27/M05 A3003 RMK A01 T02671049  RH  012%=      5-min Rain = 0
KAI1 142100Z 24019KT 27/M05 A3003 RMK A01 T02671048  RH  012%=      5-min Rain = 0
KAI1 142101Z 23018KT 27/M05 A3003 RMK A01 T02691049  RH  012%=      5-min Rain = 0
KAI1 142102Z 23018KT 27/M05 A3003 RMK A01 T02691047  RH  012%=      5-min Rain = 0
KAI1 142103Z 22018KT 27/M05 A3003 RMK A01 T02701045  RH  012%=      5-min Rain = 0
KAI1 142104Z 22018KT 27/M04 A3003 RMK A01 T02701044  RH  012%=      5-min Rain = 0
KAI1 142105Z 23018KT 27/M04 A3003 RMK A01 T02721042  RH  012%=      5-min Rain = 0
KAI1 142106Z 23023KT 27/M04 A3003 RMK A01 T02741040  RH  012%=      5-min Rain = 0
KAI1 142107Z 22022KT 27/M04 A3003 RMK A01 T02731039  RH  013%=      5-min Rain = 0
KAI1 142108Z 23017KT 27/M04 A3003 RMK A01 T02701041  RH  013%=      5-min Rain = 0
KAI1 142109Z 24020G25KT 27/M04 A3003 RMK A01 T02701042  RH  013%=      5-min Rain = 0
KAI1 142110Z 23019KT 27/M04 A3003 RMK A01 T02701043  RH  012%=      5-min Rain = 0
KAI1 142111Z 23019G24KT 27/M04 A3003 RMK A01 T02701043  RH  012%=      5-min Rain = 0
KAI1 142112Z 24022KT 27/M04 A3002 RMK A01 T02711041  RH  013%=      5-min Rain = 0
KAI1 142113Z 24020KT 27/M04 A3002 RMK A01 T02711043  RH  012%=      5-min Rain = 0
KAI1 142114Z 24020G25KT 27/M04 A3002 RMK A01 T02701043  RH  012%=      5-min Rain = 0
KAI1 142115Z 24017KT 27/M04 A3003 RMK A01 T02681042  RH  013%=      5-min Rain = 0
KAI1 142116Z 24018G23KT 27/M04 A3003 RMK A01 T02691040  RH  013%=      5-min Rain = 0
KAI1 142117Z 24021KT 27/M04 A3002 RMK A01 T02701037  RH  013%=      5-min Rain = 0
KAI1 142118Z 23021KT 27/M04 A3002 RMK A01 T02711035  RH  013%=      5-min Rain = 0
KAI1 142119Z 22017KT 27/M03 A3003 RMK A01 T02721031  RH  013%=      5-min Rain = 0
KAI1 142120Z 22017G24KT 27/M03 A3003 RMK A01 T02741028  RH  014%=      5-min Rain = 0
KAI1 142121Z 22021G28KT 28/M03 A3002 RMK A01 T02761028  RH  014%=      5-min Rain = 0
KAI1 142122Z 22023KT 28/M03 A3002 RMK A01 T02751029  RH  013%=      5-min Rain = 0
KAI1 142123Z 21021KT 27/M03 A3002 RMK A01 T02731030  RH  013%=      5-min Rain = 0
KAI1 142124Z 21021KT 27/M03 A3002 RMK A01 T02721029  RH  014%=      5-min Rain = 0
KAI1 142125Z 22020G25KT 27/M03 A3002 RMK A01 T02711029  RH  014%=      5-min Rain = 0
KAI1 142126Z 22020KT 27/M03 A3002 RMK A01 T02711030  RH  014%=      5-min Rain = 0
KAI1 142127Z 23019KT 27/M03 A3002 RMK A01 T02711029  RH  014%=      5-min Rain = 0
KAI1 142128Z 22019KT 27/M03 A3002 RMK A01 T02741026  RH  014%=      5-min Rain = 0
KAI1 142129Z 22018G23KT 28/M03 A3002 RMK A01 T02751026  RH  014%=      5-min Rain = 0
KAI1 142130Z 22020KT 28/M03 A3002 RMK A01 T02761025  RH  014%=      5-min Rain = 0
KAI1 142131Z 22020KT 28/M03 A3002 RMK A01 T02761025  RH  014%=      5-min Rain = 0
KAI1 142132Z 22019G24KT 28/M02 A3002 RMK A01 T02761024  RH  014%=      5-min Rain = 0
KAI1 142133Z 23021KT 28/M03 A3002 RMK A01 T02751025  RH  014%=      5-min Rain = 0
KAI1 142134Z 24020KT 27/M03 A3002 RMK A01 T02731026  RH  014%=      5-min Rain = 0
KAI1 142135Z 24016G21KT 27/M03 A3002 RMK A01 T02731026  RH  014%=      5-min Rain = 0
KAI1 142136Z 24017KT 27/M03 A3002 RMK A01 T02721027  RH  014%=      5-min Rain = 0
KAI1 142137Z 23020G25KT 27/M03 A3002 RMK A01 T02691027  RH  014%=      5-min Rain = 0
KAI1 142138Z 23022KT 27/M02 A3002 RMK A01 T02681023  RH  015%=      5-min Rain = 0
KAI1 142139Z 23020KT 27/M02 A3001 RMK A01 T02691019  RH  015%=      5-min Rain = 0
KAI1 142140Z 24024G31KT 27/M02 A3001 RMK A01 T02711017  RH  015%=      5-min Rain = 0
KAI1 142141Z 24022KT 27/M02 A3001 RMK A01 T02721018  RH  015%=      5-min Rain = 0
KAI1 142142Z 24022KT 27/M02 A3001 RMK A01 T02721017  RH  015%=      5-min Rain = 0
KAI1 142143Z 24023G28KT 27/M02 A3001 RMK A01 T02721017  RH  015%=      5-min Rain = 0
KAI1 142144Z 24017KT 27/M02 A3001 RMK A01 T02731015  RH  015%=      5-min Rain = 0
KAI1 142145Z 22017G23KT 28/M01 A3001 RMK A01 T02761014  RH  015%=      5-min Rain = 0
KAI1 142146Z 23021G27KT 28/M01 A3001 RMK A01 T02781014  RH  015%=      5-min Rain = 0
KAI1 142147Z 23023KT 28/M02 A3001 RMK A01 T02791015  RH  015%=      5-min Rain = 0
KAI1 142148Z 23022KT 28/M02 A3001 RMK A01 T02771015  RH  015%=      5-min Rain = 0
KAI1 142149Z 23019G24KT 28/M02 A3001 RMK A01 T02761015  RH  015%=      5-min Rain = 0
KAI1 142150Z 23021KT 28/M02 A3001 RMK A01 T02761015  RH  015%=      5-min Rain = 0
KAI1 142151Z 23018KT 28/M02 A3001 RMK A01 T02751016  RH  015%=      5-min Rain = 0
KAI1 142152Z 23017KT 28/M02 A3001 RMK A01 T02751016  RH  015%=      5-min Rain = 0
KAI1 142153Z 22019KT 28/M02 A3001 RMK A01 T02751015  RH  015%=      5-min Rain = 0
KAI1 142154Z 23020G25KT 28/M02 A3001 RMK A01 T02751015  RH  015%=      5-min Rain = 0
KAI1 142155Z 24020G25KT 28/M02 A3001 RMK A01 T02751016  RH  015%=      5-min Rain = 0
KAI1 142156Z 24020KT 27/M02 A3001 RMK A01 T02741018  RH  015%=      5-min Rain = 0
KAI1 142157Z 24020KT 27/M02 A3001 RMK A01 T02741017  RH  015%=      5-min Rain = 0
KAI1 142158Z 23020KT 27/M01 A30 RMK A01 T02741014  RH  015%=      5-min Rain = 0
KAI1 142159Z 22022G28KT 28/M01 A30 RMK A01 T02751011  RH  015%=      5-min Rain = 0
KAI1 142200Z 22024G29KT 28/M01 A30 RMK A01 T02761010  RH  015%=      5-min Rain = 0
KAI1 142201Z 22021G28KT 28/M01 A30 RMK A01 T02761009  RH  016%=      5-min Rain = 0
KAI1 142202Z 22019KT 28/M01 A30 RMK A01 T02761009  RH  015%=      5-min Rain = 0
KAI1 142203Z 23022KT 28/M01 A30 RMK A01 T02771010  RH  015%=      5-min Rain = 0
KAI1 142204Z 24021KT 28/M01 A30 RMK A01 T02771010  RH  015%=      5-min Rain = 0
KAI1 142205Z 22020KT 28/M01 A30 RMK A01 T02761011  RH  015%=      5-min Rain = 0
KAI1 142206Z 21019KT 28/M01 A30 RMK A01 T02761010  RH  015%=      5-min Rain = 0
KAI1 142207Z 21019G24KT 28/M01 A30 RMK A01 T02761011  RH  015%=      5-min Rain = 0
KAI1 142208Z 21020KT 28/M01 A30 RMK A01 T02771010  RH  015%=      5-min Rain = 0
KAI1 142209Z 21017G23KT 28/M01 A30 RMK A01 T02761009  RH  015%=      5-min Rain = 0
KAI1 142210Z 22025KT 28/M01 A30 RMK A01 T02771007  RH  016%=      5-min Rain = 0
KAI1 142211Z 22022KT 28/M01 A30 RMK A01 T02771006  RH  016%=      5-min Rain = 0
KAI1 142212Z 22020G25KT 28/M01 A30 RMK A01 T02761005  RH  016%=      5-min Rain = 0
KAI1 142213Z 22020KT 28/M01 A2999 RMK A01 T02771005  RH  016%=      5-min Rain = 0
KAI1 142214Z 22023G30KT 28/M01 A2999 RMK A01 T02761005  RH  016%=      5-min Rain = 0
KAI1 142215Z 23026G32KT 28/M00 A2999 RMK A01 T02771002  RH  016%=      5-min Rain = 0
KAI1 142216Z 23023G28KT 28/00 A30 RMK A01 T02770000  RH  016%=      5-min Rain = 0
KAI1 142217Z 23024KT 28/00 A30 RMK A01 T02770001  RH  017%=      5-min Rain = 0
KAI1 142218Z 23020G27KT 28/00 A30 RMK A01 T02760001  RH  017%=      5-min Rain = 0
KAI1 142219Z 23024KT 28/00 A2999 RMK A01 T02760001  RH  017%=      5-min Rain = 0
KAI1 142220Z 22024KT 28/00 A2999 RMK A01 T02760002  RH  017%=      5-min Rain = 0
KAI1 142221Z 22023G28KT 28/00 A30 RMK A01 T02750002  RH  017%=      5-min Rain = 0
KAI1 142222Z 22021KT 28/00 A2999 RMK A01 T02750002  RH  017%=      5-min Rain = 0
KAI1 142223Z 22022KT 28/00 A2999 RMK A01 T02750002  RH  017%=      5-min Rain = 0
KAI1 142224Z 23021G26KT 28/00 A2999 RMK A01 T02750003  RH  017%=      5-min Rain = 0
KAI1 142225Z 23020G26KT 28/00 A2999 RMK A01 T02750004  RH  017%=      5-min Rain = 0
KAI1 142226Z 23026KT 27/00 A2999 RMK A01 T02740003  RH  017%=      5-min Rain = 0
KAI1 142227Z 24022KT 27/00 A2999 RMK A01 T02710002  RH  017%=      5-min Rain = 0
KAI1 142228Z 24019G24KT 27/00 A2999 RMK A01 T02690002  RH  018%=      5-min Rain = 0
KAI1 142229Z 23021KT 27/00 A2999 RMK A01 T02680002  RH  018%=      5-min Rain = 0
KAI1 142230Z 23021KT 27/00 A2999 RMK A01 T02670002  RH  018%=      5-min Rain = 0
KAI1 142231Z 23021KT 27/00 A2999 RMK A01 T02680002  RH  018%=      5-min Rain = 0
KAI1 142232Z 23022G27KT 27/00 A2999 RMK A01 T02680003  RH  018%=      5-min Rain = 0
KAI1 142233Z 24023KT 27/00 A2999 RMK A01 T02690004  RH  018%=      5-min Rain = 0
KAI1 142234Z 23021G27KT 27/00 A2999 RMK A01 T02690004  RH  018%=      5-min Rain = 0
KAI1 142235Z 23024KT 27/00 A2999 RMK A01 T02680004  RH  018%=      5-min Rain = 0
KAI1 142236Z 22022KT 27/01 A2999 RMK A01 T02680005  RH  018%=      5-min Rain = 0
KAI1 142237Z 22021G27KT 27/01 A2999 RMK A01 T02680005  RH  018%=      5-min Rain = 0
KAI1 142238Z 23021KT 27/01 A2999 RMK A01 T02680005  RH  018%=      5-min Rain = 0
KAI1 142239Z 23023G28KT 27/01 A2999 RMK A01 T02680006  RH  018%=      5-min Rain = 0
KAI1 142240Z 22019G24KT 27/01 A2999 RMK A01 T02680007  RH  018%=      5-min Rain = 0
KAI1 142241Z 22023G31KT 27/01 A2999 RMK A01 T02680008  RH  018%=      5-min Rain = 0
KAI1 142242Z 22020KT 27/01 A2999 RMK A01 T02690008  RH  018%=      5-min Rain = 0
KAI1 142243Z 23020KT 27/01 A2999 RMK A01 T02680008  RH  018%=      5-min Rain = 0
KAI1 142244Z 22022G29KT 27/01 A2999 RMK A01 T02680008  RH  018%=      5-min Rain = 0
KAI1 142245Z 21026KT 27/01 A2999 RMK A01 T02670007  RH  018%=      5-min Rain = 0
KAI1 142246Z 21021G27KT 27/01 A2999 RMK A01 T02660007  RH  018%=      5-min Rain = 0
KAI1 142247Z 21023G29KT 27/01 A2999 RMK A01 T02650007  RH  019%=      5-min Rain = 0
KAI1 142248Z 22023G28KT 26/01 A2999 RMK A01 T02640007  RH  019%=      5-min Rain = 0
KAI1 142249Z 22026G31KT 26/01 A2999 RMK A01 T02640008  RH  019%=      5-min Rain = 0
KAI1 142250Z 22023KT 26/01 A2999 RMK A01 T02640007  RH  019%=      5-min Rain = 0
KAI1 142251Z 22021G27KT 26/01 A2999 RMK A01 T02640008  RH  019%=      5-min Rain = 0
KAI1 142252Z 23020G25KT 26/01 A2999 RMK A01 T02640008  RH  019%=      5-min Rain = 0
KAI1 142253Z 22019G25KT 27/01 A2999 RMK A01 T02660010  RH  019%=      5-min Rain = 0
KAI1 142254Z 22027KT 27/01 A2999 RMK A01 T02660010  RH  019%=      5-min Rain = 0
KAI1 142255Z 22027G32KT 27/01 A2999 RMK A01 T02670011  RH  019%=      5-min Rain = 0
KAI1 142256Z 22027KT 27/01 A2999 RMK A01 T02680012  RH  019%=      5-min Rain = 0
KAI1 142257Z 22024KT 27/01 A2999 RMK A01 T02680012  RH  019%=      5-min Rain = 0
KAI1 142258Z 22020KT 27/01 A2999 RMK A01 T02680013  RH  019%=      5-min Rain = 0
KAI1 142259Z 22019KT 27/01 A2999 RMK A01 T02680013  RH  019%=      5-min Rain = 0
KAI1 142300Z 22020G26KT 27/01 A2999 RMK A01 T02680014  RH  019%=      5-min Rain = 0
KAI1 142301Z 23020KT 27/01 A2999 RMK A01 T02680013  RH  019%=      5-min Rain = 0
KAI1 142302Z 23016G22KT 27/01 A2999 RMK A01 T02680012  RH  019%=      5-min Rain = 0
KAI1 142303Z 23021G26KT 27/01 A2999 RMK A01 T02670012  RH  019%=      5-min Rain = 0
KAI1 142304Z 23022KT 27/01 A2999 RMK A01 T02670012  RH  019%=      5-min Rain = 0
KAI1 142305Z 23019KT 27/01 A2999 RMK A01 T02670012  RH  019%=      5-min Rain = 0
KAI1 142306Z 23018G24KT 27/01 A2999 RMK A01 T02670012  RH  019%=      5-min Rain = 0
KAI1 142307Z 24024KT 27/01 A2999 RMK A01 T02660011  RH  019%=      5-min Rain = 0
KAI1 142308Z 24023KT 27/01 A2999 RMK A01 T02650009  RH  019%=      5-min Rain = 0
KAI1 142309Z 24025KT 27/01 A2998 RMK A01 T02650009  RH  019%=      5-min Rain = 0
KAI1 142310Z 23020G26KT 27/01 A2999 RMK A01 T02650009  RH  019%=      5-min Rain = 0
KAI1 142311Z 23020G25KT 27/01 A2999 RMK A01 T02650009  RH  019%=      5-min Rain = 0
KAI1 142312Z 23020KT 27/01 A2999 RMK A01 T02650009  RH  019%=      5-min Rain = 0
KAI1 142313Z 23021KT 27/01 A2999 RMK A01 T02650009  RH  019%=      5-min Rain = 0
KAI1 142314Z 23022KT 27/01 A2999 RMK A01 T02660009  RH  019%=      5-min Rain = 0
KAI1 142315Z 23019KT 27/01 A2999 RMK A01 T02660009  RH  019%=      5-min Rain = 0
KAI1 142316Z 23021G26KT 27/01 A2999 RMK A01 T02650009  RH  019%=      5-min Rain = 0
KAI1 142317Z 23023KT 27/01 A2998 RMK A01 T02650008  RH  019%=      5-min Rain = 0
KAI1 142318Z 23021KT 27/01 A2998 RMK A01 T02650009  RH  019%=      5-min Rain = 0
KAI1 142319Z 23018KT 27/01 A2999 RMK A01 T02650008  RH  019%=      5-min Rain = 0
KAI1 142320Z 23021KT 27/01 A2998 RMK A01 T02650009  RH  019%=      5-min Rain = 0
KAI1 142321Z 23019KT 27/01 A2999 RMK A01 T02650008  RH  019%=      5-min Rain = 0
KAI1 142322Z 22018KT 27/01 A2998 RMK A01 T02650008  RH  019%=      5-min Rain = 0
KAI1 142323Z 22018KT 27/01 A2998 RMK A01 T02650008  RH  019%=      5-min Rain = 0
KAI1 142324Z 23019G25KT 26/01 A2998 RMK A01 T02640007  RH  019%=      5-min Rain = 0
KAI1 142325Z 23016KT 26/01 A2998 RMK A01 T02640007  RH  019%=      5-min Rain = 0
KAI1 142326Z 24018G25KT 26/01 A2998 RMK A01 T02630006  RH  019%=      5-min Rain = 0
KAI1 142327Z 23017KT 26/00 A2998 RMK A01 T02630004  RH  018%=      5-min Rain = 0
KAI1 142328Z 23018G23KT 26/01 A2998 RMK A01 T02620005  RH  019%=      5-min Rain = 0
KAI1 142329Z 23021KT 26/00 A2998 RMK A01 T02620004  RH  019%=      5-min Rain = 0
KAI1 142330Z 23020KT 26/00 A2998 RMK A01 T02610004  RH  019%=      5-min Rain = 0
KAI1 142331Z 23019KT 26/00 A2998 RMK A01 T02610004  RH  019%=      5-min Rain = 0
KAI1 142332Z 23020KT 26/00 A2998 RMK A01 T02600004  RH  019%=      5-min Rain = 0
KAI1 142333Z 23016KT 26/00 A2998 RMK A01 T02600004  RH  019%=      5-min Rain = 0
KAI1 142334Z 23017KT 26/00 A2998 RMK A01 T02600004  RH  019%=      5-min Rain = 0
KAI1 142335Z 23020KT 26/00 A2998 RMK A01 T02590004  RH  019%=      5-min Rain = 0
KAI1 142336Z 23021KT 26/00 A2998 RMK A01 T02590004  RH  019%=      5-min Rain = 0
KAI1 142337Z 24020KT 26/00 A2998 RMK A01 T02590004  RH  019%=      5-min Rain = 0
KAI1 142338Z 23018G24KT 26/00 A2998 RMK A01 T02590004  RH  019%=      5-min Rain = 0
KAI1 142339Z 23021KT 26/00 A2998 RMK A01 T02590003  RH  019%=      5-min Rain = 0
KAI1 142340Z 23017G22KT 26/00 A2998 RMK A01 T02590003  RH  019%=      5-min Rain = 0
KAI1 142341Z 23017KT 26/00 A2998 RMK A01 T02570003  RH  019%=      5-min Rain = 0
KAI1 142342Z 23017KT 26/00 A2998 RMK A01 T02560003  RH  019%=      5-min Rain = 0
KAI1 142343Z 23017KT 26/00 A2998 RMK A01 T02560003  RH  019%=      5-min Rain = 0
KAI1 142344Z 23015KT 26/00 A2998 RMK A01 T02560003  RH  019%=      5-min Rain = 0
KAI1 142345Z 23013KT 26/00 A2998 RMK A01 T02550003  RH  019%=      5-min Rain = 0
KAI1 142346Z 23013KT 25/00 A2998 RMK A01 T02540003  RH  019%=      5-min Rain = 0
KAI1 142347Z 23013KT 25/00 A2998 RMK A01 T02530003  RH  019%=      5-min Rain = 0
KAI1 142348Z 22014G20KT 25/00 A2998 RMK A01 T02530003  RH  019%=      5-min Rain = 0
KAI1 142349Z 22019KT 25/00 A2998 RMK A01 T02530001  RH  019%=      5-min Rain = 0
KAI1 142350Z 22019KT 25/00 A2998 RMK A01 T02530001  RH  019%=      5-min Rain = 0
KAI1 142351Z 22016KT 25/00 A2998 RMK A01 T02530001  RH  019%=      5-min Rain = 0
KAI1 142352Z 22017KT 25/00 A2998 RMK A01 T02530001  RH  019%=      5-min Rain = 0
KAI1 142353Z 22020G25KT 25/00 A2998 RMK A01 T02530001  RH  019%=      5-min Rain = 0
KAI1 142354Z 22021G26KT 25/00 A2998 RMK A01 T02530001  RH  019%=      5-min Rain = 0
KAI1 142355Z 22019G24KT 25/00 A2998 RMK A01 T02530002  RH  019%=      5-min Rain = 0
KAI1 142356Z 22022KT 25/00 A2998 RMK A01 T02530002  RH  019%=      5-min Rain = 0
KAI1 142357Z 22018G23KT 25/00 A2998 RMK A01 T02530002  RH  019%=      5-min Rain = 0
KAI1 142358Z 22018KT 25/00 A2998 RMK A01 T02520001  RH  019%=      5-min Rain = 0
KAI1 142359Z 22017KT 25/00 A2998 RMK A01 T02510001  RH  019%=      5-min Rain = 0
KAI1 150000Z 22019KT 25/00 A2998 RMK A01 T02510001  RH  019%=      5-min Rain = 0
KAI1 150001Z 22015KT 25/00 A2998 RMK A01 T02500001  RH  019%=      5-min Rain = 0
KAI1 150002Z 22017KT 25/00 A2998 RMK A01 T02490001  RH  020%=      5-min Rain = 0
KAI1 150003Z 23016KT 25/00 A2998 RMK A01 T02480001  RH  020%=      5-min Rain = 0
KAI1 150004Z 23016KT 25/00 A2998 RMK A01 T02470002  RH  020%=      5-min Rain = 0
KAI1 150005Z 23015KT 25/00 A2998 RMK A01 T02460001  RH  020%=      5-min Rain = 0
KAI1 150006Z 23016KT 25/00 A2998 RMK A01 T02450001  RH  020%=      5-min Rain = 0
KAI1 150007Z 23016KT 24/00 A2998 RMK A01 T02440001  RH  020%=      5-min Rain = 0
KAI1 150008Z 23016KT 24/00 A2998 RMK A01 T02440001  RH  020%=      5-min Rain = 0
KAI1 150009Z 23014KT 24/00 A2998 RMK A01 T02440001  RH  020%=      5-min Rain = 0
KAI1 150010Z 23015KT 24/00 A2998 RMK A01 T024200-0  RH  020%=      5-min Rain = 0
KAI1 150011Z 23015KT 24/M00 A2998 RMK A01 T02421001  RH  020%=      5-min Rain = 0
KAI1 150012Z 23016KT 24/M00 A2998 RMK A01 T02411001  RH  020%=      5-min Rain = 0
KAI1 150013Z 23015KT 24/M00 A2998 RMK A01 T02411001  RH  020%=      5-min Rain = 0
KAI1 150014Z 23016KT 24/M00 A2998 RMK A01 T02401001  RH  020%=      5-min Rain = 0
KAI1 150015Z 23015KT 24/M00 A2999 RMK A01 T02401002  RH  020%=      5-min Rain = 0
KAI1 150016Z 23014KT 24/M00 A2999 RMK A01 T02401002  RH  020%=      5-min Rain = 0
KAI1 150017Z 23014KT 24/M00 A2999 RMK A01 T02381002  RH  020%=      5-min Rain = 0
KAI1 150018Z 23013KT 24/M00 A2998 RMK A01 T02371002  RH  021%=      5-min Rain = 0
KAI1 150019Z 23013KT 24/M00 A2998 RMK A01 T02361003  RH  021%=      5-min Rain = 0
KAI1 150020Z 23013KT 24/M00 A2998 RMK A01 T02351003  RH  021%=      5-min Rain = 0
KAI1 150021Z 23013KT 23/M00 A2998 RMK A01 T02341004  RH  021%=      5-min Rain = 0
KAI1 150022Z 23013G18KT 23/M00 A2998 RMK A01 T02331004  RH  021%=      5-min Rain = 0
KAI1 150023Z 23014KT 23/M00 A2998 RMK A01 T02331004  RH  021%=      5-min Rain = 0
KAI1 150024Z 23012KT 23/M01 A2998 RMK A01 T02331005  RH  021%=      5-min Rain = 0
KAI1 150025Z 23013KT 23/M01 A2998 RMK A01 T02321005  RH  021%=      5-min Rain = 0
KAI1 150026Z 23013KT 23/M01 A2998 RMK A01 T02311006  RH  021%=      5-min Rain = 0
KAI1 150027Z 23013KT 23/M01 A2998 RMK A01 T02301006  RH  021%=      5-min Rain = 0
KAI1 150028Z 23013KT 23/M01 A2998 RMK A01 T02291006  RH  021%=      5-min Rain = 0
KAI1 150029Z 23013KT 23/M01 A2998 RMK A01 T02281007  RH  021%=      5-min Rain = 0
KAI1 150030Z 23012KT 23/M01 A2998 RMK A01 T02271007  RH  021%=      5-min Rain = 0
KAI1 150031Z 23012KT 23/M01 A2998 RMK A01 T02261008  RH  021%=      5-min Rain = 0
KAI1 150032Z 23012KT 23/M01 A2998 RMK A01 T02251008  RH  021%=      5-min Rain = 0
KAI1 150033Z 23012KT 22/M01 A2999 RMK A01 T02231009  RH  021%=      5-min Rain = 0
KAI1 150034Z 23011KT 22/M01 A2999 RMK A01 T02221009  RH  021%=      5-min Rain = 0
KAI1 150035Z 23012KT 22/M01 A2999 RMK A01 T02211010  RH  021%=      5-min Rain = 0
KAI1 150036Z 23012KT 22/M01 A2999 RMK A01 T02201010  RH  021%=      5-min Rain = 0
KAI1 150037Z 23011KT 22/M01 A2999 RMK A01 T02191010  RH  022%=      5-min Rain = 0
KAI1 150038Z 23011KT 22/M01 A2999 RMK A01 T02181011  RH  022%=      5-min Rain = 0
KAI1 150039Z 23010KT 22/M01 A2999 RMK A01 T02161011  RH  022%=      5-min Rain = 0
KAI1 150040Z 23011KT 22/M01 A2999 RMK A01 T02151012  RH  022%=      5-min Rain = 0
KAI1 150041Z 23010KT 21/M01 A2999 RMK A01 T02141011  RH  022%=      5-min Rain = 0
KAI1 150042Z 23010KT 21/M01 A2999 RMK A01 T02131012  RH  022%=      5-min Rain = 0
KAI1 150043Z 22010KT 21/M01 A2999 RMK A01 T02121012  RH  022%=      5-min Rain = 0
KAI1 150044Z 22009KT 21/M01 A2999 RMK A01 T02111012  RH  022%=      5-min Rain = 0
KAI1 150045Z 21008KT 21/M01 A2999 RMK A01 T02091013  RH  023%=      5-min Rain = 0
KAI1 150046Z 20008KT 21/M01 A2999 RMK A01 T02061013  RH  023%=      5-min Rain = 0
KAI1 150047Z 20008KT 20/M01 A2999 RMK A01 T02031013  RH  023%=      5-min Rain = 0
KAI1 150048Z 21009KT 20/M01 A2999 RMK A01 T01991014  RH  024%=      5-min Rain = 0
KAI1 150049Z 21009KT 20/M01 A2999 RMK A01 T01971014  RH  024%=      5-min Rain = 0
KAI1 150050Z 21010KT 20/M01 A2999 RMK A01 T01961013  RH  024%=      5-min Rain = 0
KAI1 150051Z 21009KT 20/M01 A2999 RMK A01 T01961013  RH  024%=      5-min Rain = 0
KAI1 150052Z 21009KT 20/M01 A2999 RMK A01 T01961013  RH  024%=      5-min Rain = 0
KAI1 150053Z 21009KT 20/M01 A2999 RMK A01 T01961013  RH  024%=      5-min Rain = 0
KAI1 150054Z 21009KT 19/M01 A2999 RMK A01 T01941013  RH  025%=      5-min Rain = 0
KAI1 150055Z 21009KT 19/M01 A2999 RMK A01 T01931014  RH  025%=      5-min Rain = 0
KAI1 150056Z 21009KT 19/M01 A2999 RMK A01 T01921014  RH  025%=      5-min Rain = 0
KAI1 150057Z 21009KT 19/M01 A2999 RMK A01 T01911014  RH  025%=      5-min Rain = 0
KAI1 150058Z 21009KT 19/M01 A2999 RMK A01 T01901014  RH  025%=      5-min Rain = 0
KAI1 150059Z 21009KT 19/M02 A2999 RMK A01 T01891015  RH  025%=      5-min Rain = 0
KAI1 150100Z 21009KT 19/M02 A2999 RMK A01 T01871015  RH  025%=      5-min Rain = 0
KAI1 150101Z 22009KT 19/M02 A2999 RMK A01 T01871015  RH  025%=      5-min Rain = 0
KAI1 150102Z 22009KT 19/M02 A2999 RMK A01 T01871015  RH  026%=      5-min Rain = 0
KAI1 150103Z 22009KT 19/M02 A2999 RMK A01 T01861015  RH  026%=      5-min Rain = 0
KAI1 150104Z 22009KT 19/M02 A2999 RMK A01 T01861015  RH  026%=      5-min Rain = 0
KAI1 150105Z 22009KT 19/M02 A2999 RMK A01 T01861015  RH  026%=      5-min Rain = 0
KAI1 150106Z 22009KT 19/M02 A2999 RMK A01 T01861015  RH  026%=      5-min Rain = 0
KAI1 150107Z 22009KT 19/M02 A2999 RMK A01 T01861015  RH  026%=      5-min Rain = 0
KAI1 150108Z 22009KT 19/M02 A2999 RMK A01 T01861015  RH  025%=      5-min Rain = 0
KAI1 150109Z 22009KT 19/M02 A2999 RMK A01 T01861015  RH  026%=      5-min Rain = 0
KAI1 150110Z 22009KT 19/M02 A2999 RMK A01 T01851016  RH  026%=      5-min Rain = 0
KAI1 150111Z 21008KT 18/M02 A2999 RMK A01 T01841016  RH  026%=      5-min Rain = 0
KAI1 150112Z 19009KT 18/M02 A2999 RMK A01 T01821016  RH  026%=      5-min Rain = 0
KAI1 150113Z 19009KT 18/M02 A2999 RMK A01 T01791016  RH  027%=      5-min Rain = 0
KAI1 150114Z 20009KT 18/M02 A2999 RMK A01 T01781016  RH  027%=      5-min Rain = 0
KAI1 150115Z 20009KT 18/M02 A2999 RMK A01 T01771015  RH  027%=      5-min Rain = 0
KAI1 150116Z 20010KT 18/M02 A2999 RMK A01 T01761015  RH  027%=      5-min Rain = 0
KAI1 150117Z 21010KT 18/M02 A2999 RMK A01 T01761015  RH  027%=      5-min Rain = 0
KAI1 150118Z 21010KT 18/M02 A2999 RMK A01 T01761015  RH  027%=      5-min Rain = 0
KAI1 150119Z 21011KT 18/M01 A2999 RMK A01 T01771014  RH  027%=      5-min Rain = 0
KAI1 150120Z 21011KT 18/M01 A2999 RMK A01 T01771014  RH  027%=      5-min Rain = 0
KAI1 150121Z 21011KT 18/M01 A2999 RMK A01 T01781014  RH  027%=      5-min Rain = 0
KAI1 150122Z 21011KT 18/M01 A2999 RMK A01 T01791014  RH  027%=      5-min Rain = 0
KAI1 150123Z 22011KT 18/M01 A2999 RMK A01 T01791014  RH  027%=      5-min Rain = 0
KAI1 150124Z 22011KT 18/M02 A2999 RMK A01 T01811015  RH  026%=      5-min Rain = 0
KAI1 150125Z 22011KT 18/M02 A2999 RMK A01 T01831015  RH  026%=      5-min Rain = 0
KAI1 150126Z 22011KT 18/M02 A2999 RMK A01 T01841015  RH  026%=      5-min Rain = 0
KAI1 150127Z 22012KT 18/M02 A2999 RMK A01 T01841015  RH  026%=      5-min Rain = 0
KAI1 150128Z 22012KT 18/M02 A2999 RMK A01 T01841015  RH  026%=      5-min Rain = 0
KAI1 150129Z 22011KT 19/M02 A2999 RMK A01 T01851015  RH  026%=      5-min Rain = 0
KAI1 150130Z 22011KT 19/M02 A2999 RMK A01 T01851015  RH  026%=      5-min Rain = 0
KAI1 150131Z 22011KT 19/M02 A2999 RMK A01 T01861015  RH  026%=      5-min Rain = 0
KAI1 150132Z 23011KT 19/M02 A2999 RMK A01 T01861015  RH  026%=      5-min Rain = 0
KAI1 150133Z 22011KT 19/M02 A30 RMK A01 T01851016  RH  026%=      5-min Rain = 0
KAI1 150134Z 23011KT 18/M02 A30 RMK A01 T01841016  RH  026%=      5-min Rain = 0
KAI1 150135Z 22010KT 18/M02 A30 RMK A01 T01831016  RH  026%=      5-min Rain = 0
KAI1 150136Z 23010KT 18/M02 A30 RMK A01 T01821017  RH  026%=      5-min Rain = 0
KAI1 150137Z 22010KT 18/M02 A30 RMK A01 T01811017  RH  026%=      5-min Rain = 0
KAI1 150138Z 22010KT 18/M02 A30 RMK A01 T01791017  RH  026%=      5-min Rain = 0
KAI1 150139Z 22010KT 18/M02 A2999 RMK A01 T01781018  RH  026%=      5-min Rain = 0
KAI1 150140Z 22010KT 18/M02 A2999 RMK A01 T01781018  RH  026%=      5-min Rain = 0
KAI1 150141Z 22011KT 18/M02 A2999 RMK A01 T01771018  RH  026%=      5-min Rain = 0
KAI1 150142Z 22011KT 18/M02 A2999 RMK A01 T01771018  RH  027%=      5-min Rain = 0
KAI1 150143Z 22010KT 18/M02 A2999 RMK A01 T01771018  RH  026%=      5-min Rain = 0
KAI1 150144Z 22011KT 18/M02 A2999 RMK A01 T01771018  RH  026%=      5-min Rain = 0
KAI1 150145Z 22011KT 18/M02 A2999 RMK A01 T01781018  RH  026%=      5-min Rain = 0
KAI1 150146Z 22011KT 18/M02 A2999 RMK A01 T01791018  RH  026%=      5-min Rain = 0
KAI1 150147Z 22011KT 18/M02 A2999 RMK A01 T01801018  RH  026%=      5-min Rain = 0
KAI1 150148Z 22011KT 18/M02 A2999 RMK A01 T01801018  RH  026%=      5-min Rain = 0
KAI1 150149Z 22011KT 18/M02 A2999 RMK A01 T01821018  RH  026%=      5-min Rain = 0
KAI1 150150Z 21011KT 18/M02 A2999 RMK A01 T01821018  RH  026%=      5-min Rain = 0
KAI1 150151Z 21011KT 18/M02 A2999 RMK A01 T01821018  RH  026%=      5-min Rain = 0
KAI1 150152Z 21011KT 18/M02 A2999 RMK A01 T01821018  RH  026%=      5-min Rain = 0
KAI1 150153Z 20010KT 18/M02 A2999 RMK A01 T01811018  RH  026%=      5-min Rain = 0
KAI1 150154Z 18010KT 18/M02 A2999 RMK A01 T01801018  RH  026%=      5-min Rain = 0
KAI1 150155Z 18009KT 18/M02 A2999 RMK A01 T01761019  RH  026%=      5-min Rain = 0
KAI1 150156Z 18010KT 17/M02 A2999 RMK A01 T01721019  RH  027%=      5-min Rain = 0
KAI1 150157Z 19011KT 17/M02 A2999 RMK A01 T01681020  RH  028%=      5-min Rain = 0
KAI1 150158Z 19011KT 17/M02 A2999 RMK A01 T01661019  RH  028%=      5-min Rain = 0
KAI1 150159Z 19011KT 16/M02 A2999 RMK A01 T01641019  RH  028%=      5-min Rain = 0
KAI1 150200Z 20010KT 16/M02 A2999 RMK A01 T01631020  RH  029%=      5-min Rain = 0
KAI1 150201Z 20010KT 16/M02 A2999 RMK A01 T01631019  RH  029%=      5-min Rain = 0
KAI1 150202Z 20011KT 16/M02 A2999 RMK A01 T01631020  RH  029%=      5-min Rain = 0
KAI1 150203Z 20011KT 16/M02 A2999 RMK A01 T01631019  RH  029%=      5-min Rain = 0
KAI1 150204Z 20011KT 16/M02 A2999 RMK A01 T01631019  RH  029%=      5-min Rain = 0
KAI1 150205Z 20011KT 16/M02 A2999 RMK A01 T01641018  RH  029%=      5-min Rain = 0
KAI1 150206Z 20011KT 16/M02 A2999 RMK A01 T01641017  RH  029%=      5-min Rain = 0
KAI1 150207Z 19011KT 17/M02 A2999 RMK A01 T01651017  RH  029%=      5-min Rain = 0
KAI1 150208Z 19010KT 17/M02 A2999 RMK A01 T01661016  RH  029%=      5-min Rain = 0
KAI1 150209Z 19010KT 17/M02 A2999 RMK A01 T01671016  RH  029%=      5-min Rain = 0
KAI1 150210Z 19010KT 17/M02 A2999 RMK A01 T01681016  RH  029%=      5-min Rain = 0
KAI1 150211Z 19010KT 17/M02 A2999 RMK A01 T01681016  RH  029%=      5-min Rain = 0
KAI1 150212Z 20011KT 17/M02 A2999 RMK A01 T01681016  RH  029%=      5-min Rain = 0
KAI1 150213Z 20011KT 17/M02 A2999 RMK A01 T01701016  RH  028%=      5-min Rain = 0
KAI1 150214Z 20012KT 17/M02 A2999 RMK A01 T01711016  RH  028%=      5-min Rain = 0
KAI1 150215Z 20012KT 17/M02 A2999 RMK A01 T01711016  RH  028%=      5-min Rain = 0
KAI1 150216Z 20011KT 17/M02 A2999 RMK A01 T01711016  RH  028%=      5-min Rain = 0
KAI1 150217Z 20012KT 17/M02 A2999 RMK A01 T01711017  RH  028%=      5-min Rain = 0
KAI1 150218Z 20011KT 17/M02 A2999 RMK A01 T01701017  RH  028%=      5-min Rain = 0
KAI1 150219Z 20012KT 17/M02 A2999 RMK A01 T01691018  RH  028%=      5-min Rain = 0
KAI1 150220Z 20011KT 17/M02 A2999 RMK A01 T01681019  RH  028%=      5-min Rain = 0
KAI1 150221Z 20011KT 17/M02 A2999 RMK A01 T01681018  RH  028%=      5-min Rain = 0
KAI1 150222Z 20011KT 17/M02 A2999 RMK A01 T01681019  RH  028%=      5-min Rain = 0
KAI1 150223Z 20011KT 17/M02 A2999 RMK A01 T01681019  RH  028%=      5-min Rain = 0
KAI1 150224Z 20010KT 17/M02 A2999 RMK A01 T01671019  RH  028%=      5-min Rain = 0
KAI1 150225Z 20010KT 17/M02 A30 RMK A01 T01671019  RH  028%=      5-min Rain = 0
KAI1 150226Z 20010KT 17/M02 A30 RMK A01 T01671019  RH  028%=      5-min Rain = 0
KAI1 150227Z 20010KT 17/M02 A30 RMK A01 T01661019  RH  028%=      5-min Rain = 0
KAI1 150228Z 20010KT 16/M02 A30 RMK A01 T01641019  RH  028%=      5-min Rain = 0
KAI1 150229Z 20009KT 16/M02 A30 RMK A01 T01641019  RH  029%=      5-min Rain = 0
KAI1 150230Z 20009KT 16/M02 A30 RMK A01 T01631019  RH  029%=      5-min Rain = 0
KAI1 150231Z 20010KT 16/M02 A30 RMK A01 T01621020  RH  029%=      5-min Rain = 0
KAI1 150232Z 20010KT 16/M02 A30 RMK A01 T01611020  RH  029%=      5-min Rain = 0
KAI1 150233Z 20010KT 16/M02 A30 RMK A01 T01611020  RH  029%=      5-min Rain = 0
KAI1 150234Z 21010KT 16/M02 A30 RMK A01 T01611020  RH  029%=      5-min Rain = 0
KAI1 150235Z 21010KT 16/M02 A30 RMK A01 T01621020  RH  029%=      5-min Rain = 0
KAI1 150236Z 21010KT 16/M02 A30 RMK A01 T01631020  RH  029%=      5-min Rain = 0
KAI1 150237Z 21010KT 17/M02 A30 RMK A01 T01651019  RH  028%=      5-min Rain = 0
KAI1 150238Z 21010KT 17/M02 A30 RMK A01 T01671019  RH  028%=      5-min Rain = 0
KAI1 150239Z 21011KT 17/M02 A30 RMK A01 T01691019  RH  028%=      5-min Rain = 0
KAI1 150240Z 20011KT 17/M02 A30 RMK A01 T01711019  RH  027%=      5-min Rain = 0
KAI1 150241Z 21011KT 17/M02 A30 RMK A01 T01721019  RH  027%=      5-min Rain = 0
KAI1 150242Z 20011KT 17/M02 A30 RMK A01 T01731019  RH  027%=      5-min Rain = 0
KAI1 150243Z 20011KT 17/M02 A30 RMK A01 T01741019  RH  027%=      5-min Rain = 0
KAI1 150244Z 21011KT 18/M02 A30 RMK A01 T01751019  RH  027%=      5-min Rain = 0
KAI1 150245Z 21011KT 18/M02 A30 RMK A01 T01751019  RH  027%=      5-min Rain = 0
KAI1 150246Z 21011KT 18/M02 A30 RMK A01 T01751019  RH  027%=      5-min Rain = 0
KAI1 150247Z 21010KT 18/M02 A30 RMK A01 T01751019  RH  027%=      5-min Rain = 0
KAI1 150248Z 21010KT 18/M02 A30 RMK A01 T01751019  RH  027%=      5-min Rain = 0
KAI1 150249Z 21010KT 18/M02 A30 RMK A01 T01751019  RH  027%=      5-min Rain = 0
KAI1 150250Z 21009KT 18/M02 A30 RMK A01 T01751019  RH  027%=      5-min Rain = 0
KAI1 150251Z 21010KT 17/M02 A30 RMK A01 T01741019  RH  027%=      5-min Rain = 0
KAI1 150252Z 21011KT 17/M02 A30 RMK A01 T01741019  RH  027%=      5-min Rain = 0
KAI1 150253Z 21010KT 18/M02 A3001 RMK A01 T01751019  RH  027%=      5-min Rain = 0
KAI1 150254Z 21010KT 17/M02 A3001 RMK A01 T01741019  RH  027%=      5-min Rain = 0
KAI1 150255Z 21010KT 17/M02 A3001 RMK A01 T01741019  RH  027%=      5-min Rain = 0
KAI1 150256Z 20010KT 17/M02 A3001 RMK A01 T01731019  RH  027%=      5-min Rain = 0
KAI1 150257Z 21009KT 17/M02 A3001 RMK A01 T01721019  RH  027%=      5-min Rain = 0
KAI1 150258Z 20010KT 17/M02 A3001 RMK A01 T01711020  RH  027%=      5-min Rain = 0
KAI1 150259Z 20010KT 17/M02 A3001 RMK A01 T01711019  RH  027%=      5-min Rain = 0
KAI1 150300Z 20010KT 17/M02 A3001 RMK A01 T01711019  RH  027%=      5-min Rain = 0
KAI1 150301Z 21009KT 17/M02 A3001 RMK A01 T01711018  RH  027%=      5-min Rain = 0
KAI1 150302Z 21010KT 17/M02 A3001 RMK A01 T01711018  RH  028%=      5-min Rain = 0
KAI1 150303Z 21010KT 17/M02 A3001 RMK A01 T01701018  RH  028%=      5-min Rain = 0
KAI1 150304Z 21010KT 17/M02 A30 RMK A01 T01701019  RH  028%=      5-min Rain = 0
KAI1 150305Z 21010KT 17/M02 A30 RMK A01 T01691019  RH  028%=      5-min Rain = 0
KAI1 150306Z 21011KT 17/M02 A30 RMK A01 T01691019  RH  028%=      5-min Rain = 0
KAI1 150307Z 21011KT 17/M02 A30 RMK A01 T01691020  RH  028%=      5-min Rain = 0
KAI1 150308Z 21011KT 17/M02 A3001 RMK A01 T01691019  RH  028%=      5-min Rain = 0
KAI1 150309Z 21011KT 17/M02 A3001 RMK A01 T01681019  RH  028%=      5-min Rain = 0
KAI1 150310Z 21011KT 17/M02 A3001 RMK A01 T01681019  RH  028%=      5-min Rain = 0
KAI1 150311Z 21011KT 17/M02 A3001 RMK A01 T01681020  RH  028%=      5-min Rain = 0
KAI1 150312Z 21012KT 17/M02 A3001 RMK A01 T01681020  RH  028%=      5-min Rain = 0
KAI1 150313Z 21012KT 17/M02 A3001 RMK A01 T01681020  RH  028%=      5-min Rain = 0
KAI1 150314Z 22012KT 17/M02 A3001 RMK A01 T01701019  RH  028%=      5-min Rain = 0
KAI1 150315Z 22011KT 17/M02 A3001 RMK A01 T01701019  RH  027%=      5-min Rain = 0
KAI1 150316Z 22012KT 17/M02 A3001 RMK A01 T01701019  RH  027%=      5-min Rain = 0
KAI1 150317Z 22013KT 17/M02 A3001 RMK A01 T01701019  RH  027%=      5-min Rain = 0
KAI1 150318Z 22012KT 17/M02 A3001 RMK A01 T01701019  RH  027%=      5-min Rain = 0
KAI1 150319Z 22012KT 17/M02 A3001 RMK A01 T01691019  RH  028%=      5-min Rain = 0
KAI1 150320Z 22012KT 17/M02 A3001 RMK A01 T01681020  RH  028%=      5-min Rain = 0
KAI1 150321Z 22012KT 17/M02 A3001 RMK A01 T01681019  RH  028%=      5-min Rain = 0
KAI1 150322Z 22012KT 17/M02 A3001 RMK A01 T01671019  RH  028%=      5-min Rain = 0
KAI1 150323Z 22013KT 17/M02 A3001 RMK A01 T01671019  RH  028%=      5-min Rain = 0
KAI1 150324Z 22012KT 17/M02 A3001 RMK A01 T01671019  RH  028%=      5-min Rain = 0
KAI1 150325Z 22012KT 17/M02 A3001 RMK A01 T01661019  RH  028%=      5-min Rain = 0
KAI1 150326Z 22011KT 17/M02 A3001 RMK A01 T01661019  RH  028%=      5-min Rain = 0
KAI1 150327Z 22012KT 17/M02 A3001 RMK A01 T01661019  RH  028%=      5-min Rain = 0
KAI1 150328Z 22013KT 17/M02 A3001 RMK A01 T01651019  RH  028%=      5-min Rain = 0
KAI1 150329Z 22012KT 17/M02 A3001 RMK A01 T01651019  RH  028%=      5-min Rain = 0
KAI1 150330Z 22013KT 17/M02 A3001 RMK A01 T01651019  RH  028%=      5-min Rain = 0
KAI1 150331Z 22012KT 16/M02 A3001 RMK A01 T01641019  RH  029%=      5-min Rain = 0
KAI1 150332Z 22011KT 16/M02 A3001 RMK A01 T01641019  RH  029%=      5-min Rain = 0
KAI1 150333Z 22012KT 16/M02 A3001 RMK A01 T01631019  RH  029%=      5-min Rain = 0
KAI1 150334Z 22011KT 16/M02 A3001 RMK A01 T01621019  RH  029%=      5-min Rain = 0
KAI1 150335Z 22011KT 16/M02 A3001 RMK A01 T01621019  RH  029%=      5-min Rain = 0
KAI1 150336Z 22011KT 16/M02 A3001 RMK A01 T01611019  RH  029%=      5-min Rain = 0
KAI1 150337Z 22012KT 16/M02 A3001 RMK A01 T01611019  RH  029%=      5-min Rain = 0
KAI1 150338Z 22011KT 16/M02 A3001 RMK A01 T01611019  RH  029%=      5-min Rain = 0
KAI1 150339Z 22012KT 16/M02 A3001 RMK A01 T01601019  RH  029%=      5-min Rain = 0
KAI1 150340Z 22011KT 16/M02 A3001 RMK A01 T01601019  RH  029%=      5-min Rain = 0
KAI1 150341Z 22011KT 16/M02 A3001 RMK A01 T01601019  RH  029%=      5-min Rain = 0
KAI1 150342Z 22011KT 16/M02 A3001 RMK A01 T01601019  RH  029%=      5-min Rain = 0
KAI1 150343Z 22011KT 16/M02 A3001 RMK A01 T01601019  RH  029%=      5-min Rain = 0
KAI1 150344Z 22011KT 16/M02 A3001 RMK A01 T01591019  RH  029%=      5-min Rain = 0
KAI1 150345Z 22011KT 16/M02 A3001 RMK A01 T01591019  RH  029%=      5-min Rain = 0
KAI1 150346Z 22010KT 16/M02 A3001 RMK A01 T01581019  RH  030%=      5-min Rain = 0
KAI1 150347Z 21010KT 16/M02 A3001 RMK A01 T01581019  RH  030%=      5-min Rain = 0
KAI1 150348Z 21010KT 16/M02 A3001 RMK A01 T01581019  RH  030%=      5-min Rain = 0
KAI1 150349Z 21010KT 16/M02 A3001 RMK A01 T01571019  RH  030%=      5-min Rain = 0
KAI1 150350Z 21010KT 16/M02 A3002 RMK A01 T01561019  RH  030%=      5-min Rain = 0
KAI1 150351Z 20010KT 16/M02 A3002 RMK A01 T01551019  RH  030%=      5-min Rain = 0
KAI1 150352Z 20010KT 15/M02 A3002 RMK A01 T01541019  RH  030%=      5-min Rain = 0
KAI1 150353Z 19010KT 15/M02 A3002 RMK A01 T01541018  RH  031%=      5-min Rain = 0
KAI1 150354Z 19011KT 15/M02 A3002 RMK A01 T01531018  RH  031%=      5-min Rain = 0
KAI1 150355Z 20010KT 15/M02 A3002 RMK A01 T01531017  RH  031%=      5-min Rain = 0
KAI1 150356Z 20010KT 15/M02 A3002 RMK A01 T01541017  RH  031%=      5-min Rain = 0
KAI1 150357Z 20011KT 15/M02 A3002 RMK A01 T01541017  RH  031%=      5-min Rain = 0
KAI1 150358Z 20011KT 16/M02 A3002 RMK A01 T01551017  RH  031%=      5-min Rain = 0
KAI1 150359Z 20011KT 16/M02 A3002 RMK A01 T01551016  RH  031%=      5-min Rain = 0
KAI1 150400Z 20011KT 16/M02 A3002 RMK A01 T01561016  RH  031%=      5-min Rain = 0
KAI1 150401Z 19011KT 16/M02 A3002 RMK A01 T01561016  RH  031%=      5-min Rain = 0
KAI1 150402Z 19011KT 16/M02 A3002 RMK A01 T01571015  RH  031%=      5-min Rain = 0
KAI1 150403Z 20011KT 16/M02 A3002 RMK A01 T01571015  RH  031%=      5-min Rain = 0
KAI1 150404Z 20011KT 16/M02 A3002 RMK A01 T01581015  RH  031%=      5-min Rain = 0
KAI1 150405Z 20011KT 16/M02 A3002 RMK A01 T01571015  RH  031%=      5-min Rain = 0
KAI1 150406Z 20010KT 16/M01 A3002 RMK A01 T01571014  RH  031%=      5-min Rain = 0
KAI1 150407Z 20010KT 16/M02 A3002 RMK A01 T01561015  RH  031%=      5-min Rain = 0
KAI1 150408Z 20010KT 16/M02 A3002 RMK A01 T01551015  RH  031%=      5-min Rain = 0
KAI1 150409Z 20010KT 16/M02 A3002 RMK A01 T01551015  RH  031%=      5-min Rain = 0
KAI1 150410Z 20009KT 16/M02 A3002 RMK A01 T01551016  RH  031%=      5-min Rain = 0
KAI1 150411Z 20009KT 15/M02 A3002 RMK A01 T01541016  RH  031%=      5-min Rain = 0
KAI1 150412Z 20010KT 15/M02 A3002 RMK A01 T01541016  RH  031%=      5-min Rain = 0
KAI1 150413Z 20010KT 15/M02 A3002 RMK A01 T01541016  RH  031%=      5-min Rain = 0
KAI1 150414Z 20010KT 15/M02 A3002 RMK A01 T01541015  RH  031%=      5-min Rain = 0
KAI1 150415Z 19010KT 15/M02 A3002 RMK A01 T01541015  RH  031%=      5-min Rain = 0
KAI1 150416Z 19009KT 15/M02 A3002 RMK A01 T01541015  RH  031%=      5-min Rain = 0
KAI1 150417Z 21009KT 15/M02 A3002 RMK A01 T01531015  RH  031%=      5-min Rain = 0
KAI1 150418Z 21009KT 15/M01 A3002 RMK A01 T01531014  RH  032%=      5-min Rain = 0
KAI1 150419Z 21009KT 15/M01 A3002 RMK A01 T01521014  RH  032%=      5-min Rain = 0
KAI1 150420Z 22009KT 15/M01 A3002 RMK A01 T01521014  RH  032%=      5-min Rain = 0
KAI1 150421Z 21009KT 15/M01 A3002 RMK A01 T01521014  RH  032%=      5-min Rain = 0
KAI1 150422Z 21009KT 15/M01 A3002 RMK A01 T01531013  RH  032%=      5-min Rain = 0
KAI1 150423Z 21009KT 15/M01 A3002 RMK A01 T01541013  RH  032%=      5-min Rain = 0
KAI1 150424Z 21010KT 16/M01 A3002 RMK A01 T01551013  RH  032%=      5-min Rain = 0
KAI1 150425Z 21009KT 16/M01 A3002 RMK A01 T01561012  RH  032%=      5-min Rain = 0
KAI1 150426Z 21010KT 16/M01 A3001 RMK A01 T01571012  RH  031%=      5-min Rain = 0
KAI1 150427Z 21009KT 16/M01 A3001 RMK A01 T01571012  RH  031%=      5-min Rain = 0
KAI1 150428Z 21010KT 16/M01 A3001 RMK A01 T01571011  RH  031%=      5-min Rain = 0
KAI1 150429Z 21010KT 16/M01 A3001 RMK A01 T01581011  RH  032%=      5-min Rain = 0
KAI1 150430Z 21009KT 16/M01 A3001 RMK A01 T01581011  RH  032%=      5-min Rain = 0
KAI1 150431Z 21009KT 16/M01 A3001 RMK A01 T01581010  RH  032%=      5-min Rain = 0
KAI1 150432Z 21010KT 16/M01 A3001 RMK A01 T01581010  RH  032%=      5-min Rain = 0
KAI1 150433Z 22009KT 16/M01 A3002 RMK A01 T01591010  RH  032%=      5-min Rain = 0
KAI1 150434Z 22009KT 16/M01 A3001 RMK A01 T01581010  RH  032%=      5-min Rain = 0
KAI1 150435Z 22009KT 16/M01 A3001 RMK A01 T01581010  RH  032%=      5-min Rain = 0
KAI1 150436Z 22010KT 16/M01 A3001 RMK A01 T01581009  RH  032%=      5-min Rain = 0
KAI1 150437Z 22010KT 16/M01 A3001 RMK A01 T01581009  RH  032%=      5-min Rain = 0
KAI1 150438Z 21010KT 16/M01 A3001 RMK A01 T01591009  RH  032%=      5-min Rain = 0
KAI1 150439Z 21010KT 16/M01 A3001 RMK A01 T01601009  RH  032%=      5-min Rain = 0
KAI1 150440Z 21010KT 16/M01 A3001 RMK A01 T01601009  RH  032%=      5-min Rain = 0
KAI1 150441Z 21010KT 16/M01 A3001 RMK A01 T01601008  RH  032%=      5-min Rain = 0
KAI1 150442Z 21009KT 16/M01 A3001 RMK A01 T01601008  RH  032%=      5-min Rain = 0
KAI1 150443Z 21010KT 16/M01 A3001 RMK A01 T01591008  RH  032%=      5-min Rain = 0
KAI1 150444Z 22010KT 16/M01 A3001 RMK A01 T01591008  RH  032%=      5-min Rain = 0
KAI1 150445Z 22010KT 16/M01 A3001 RMK A01 T01601008  RH  032%=      5-min Rain = 0
KAI1 150446Z 21010KT 16/M01 A3001 RMK A01 T01601007  RH  032%=      5-min Rain = 0
KAI1 150447Z 21009KT 16/M01 A3001 RMK A01 T01601007  RH  032%=      5-min Rain = 0
KAI1 150448Z 21010KT 16/M01 A3001 RMK A01 T01611007  RH  032%=      5-min Rain = 0
KAI1 150449Z 21010KT 16/M01 A3001 RMK A01 T01611007  RH  032%=      5-min Rain = 0
KAI1 150450Z 21011KT 16/M01 A3001 RMK A01 T01611006  RH  032%=      5-min Rain = 0
KAI1 150451Z 21011KT 16/M01 A3001 RMK A01 T01621006  RH  032%=      5-min Rain = 0
KAI1 150452Z 21011KT 16/M01 A3001 RMK A01 T01621007  RH  032%=      5-min Rain = 0
KAI1 150453Z 21011KT 16/M01 A3001 RMK A01 T01631006  RH  032%=      5-min Rain = 0
KAI1 150454Z 21010KT 16/M01 A3001 RMK A01 T01631006  RH  032%=      5-min Rain = 0
KAI1 150455Z 22010KT 16/M01 A3001 RMK A01 T01631006  RH  032%=      5-min Rain = 0
KAI1 150456Z 22011KT 16/M01 A3001 RMK A01 T01641005  RH  032%=      5-min Rain = 0
KAI1 150457Z 22010KT 17/M00 A3001 RMK A01 T01661004  RH  031%=      5-min Rain = 0
KAI1 150458Z 22012KT 17/M00 A30 RMK A01 T01671004  RH  031%=      5-min Rain = 0
KAI1 150459Z 22012KT 17/M00 A30 RMK A01 T01681004  RH  031%=      5-min Rain = 0
KAI1 150500Z 22014KT 17/M00 A30 RMK A01 T01691003  RH  031%=      5-min Rain = 0
KAI1 150501Z 21013KT 17/M00 A30 RMK A01 T01711003  RH  031%=      5-min Rain = 0
KAI1 150502Z 21012KT 17/M00 A3001 RMK A01 T01711003  RH  031%=      5-min Rain = 0
KAI1 150503Z 21013KT 17/M00 A3001 RMK A01 T01711003  RH  031%=      5-min Rain = 0
KAI1 150504Z 21012KT 17/M00 A3001 RMK A01 T01701003  RH  031%=      5-min Rain = 0
KAI1 150505Z 21013KT 17/M00 A3001 RMK A01 T01691003  RH  031%=      5-min Rain = 0
KAI1 150506Z 21013KT 17/M00 A3001 RMK A01 T01681003  RH  031%=      5-min Rain = 0
KAI1 150507Z 21013KT 17/M00 A3001 RMK A01 T01681003  RH  031%=      5-min Rain = 0
KAI1 150508Z 21012KT 17/M00 A3001 RMK A01 T01681003  RH  031%=      5-min Rain = 0
KAI1 150509Z 20012KT 17/M00 A3001 RMK A01 T01671003  RH  031%=      5-min Rain = 0
KAI1 150510Z 21012KT 17/M00 A3001 RMK A01 T01661003  RH  032%=      5-min Rain = 0
KAI1 150511Z 20013KT 17/M00 A3001 RMK A01 T01661003  RH  032%=      5-min Rain = 0
KAI1 150512Z 20012KT 17/M00 A3001 RMK A01 T01661003  RH  032%=      5-min Rain = 0
KAI1 150513Z 20011KT 17/M00 A3001 RMK A01 T01651003  RH  032%=      5-min Rain = 0
KAI1 150514Z 20012KT 16/M00 A3001 RMK A01 T01631004  RH  032%=      5-min Rain = 0
KAI1 150515Z 20011KT 16/M00 A3001 RMK A01 T01621004  RH  032%=      5-min Rain = 0
KAI1 150516Z 20012KT 16/M00 A3001 RMK A01 T01601004  RH  033%=      5-min Rain = 0
KAI1 150517Z 20012KT 16/M00 A3001 RMK A01 T01591003  RH  033%=      5-min Rain = 0
KAI1 150518Z 20012KT 16/M00 A3001 RMK A01 T01591003  RH  033%=      5-min Rain = 0
KAI1 150519Z 20012KT 16/M00 A3001 RMK A01 T01591003  RH  033%=      5-min Rain = 0
KAI1 150520Z 20013KT 16/M00 A3001 RMK A01 T01591003  RH  033%=      5-min Rain = 0
KAI1 150521Z 20013KT 16/M00 A3001 RMK A01 T01591003  RH  033%=      5-min Rain = 0
KAI1 150522Z 21011KT 16/M00 A3001 RMK A01 T01591003  RH  033%=      5-min Rain = 0
KAI1 150523Z 21011KT 16/M00 A3001 RMK A01 T01591003  RH  033%=      5-min Rain = 0
KAI1 150524Z 21010KT 16/M00 A3001 RMK A01 T01591003  RH  033%=      5-min Rain = 0
KAI1 150525Z 21010KT 16/M00 A3001 RMK A01 T01591003  RH  033%=      5-min Rain = 0
KAI1 150526Z 21010KT 16/M00 A3001 RMK A01 T01591003  RH  033%=      5-min Rain = 0
KAI1 150527Z 21011KT 16/M00 A3001 RMK A01 T01591002  RH  033%=      5-min Rain = 0
KAI1 150528Z 21011KT 16/M00 A3001 RMK A01 T01601002  RH  033%=      5-min Rain = 0
KAI1 150529Z 21011KT 16/M00 A3001 RMK A01 T01611002  RH  033%=      5-min Rain = 0
KAI1 150530Z 21011KT 16/M00 A3001 RMK A01 T01621001  RH  033%=      5-min Rain = 0
KAI1 150531Z 21012KT 16/M00 A3001 RMK A01 T01621002  RH  033%=      5-min Rain = 0
KAI1 150532Z 21011KT 16/M00 A3001 RMK A01 T01631001  RH  033%=      5-min Rain = 0
KAI1 150533Z 20011KT 16/M00 A3001 RMK A01 T01631001  RH  033%=      5-min Rain = 0
KAI1 150534Z 21012KT 16/M00 A3001 RMK A01 T01641001  RH  033%=      5-min Rain = 0
KAI1 150535Z 21011KT 16/M00 A3001 RMK A01 T01641001  RH  033%=      5-min Rain = 0
KAI1 150536Z 21012KT 16/00 A3001 RMK A01 T016400-0  RH  033%=      5-min Rain = 0
KAI1 150537Z 21011KT 16/00 A3001 RMK A01 T01640000  RH  033%=      5-min Rain = 0
KAI1 150538Z 21012KT 17/00 A3001 RMK A01 T01650001  RH  033%=      5-min Rain = 0
KAI1 150539Z 21012KT 16/00 A3001 RMK A01 T01640001  RH  033%=      5-min Rain = 0
KAI1 150540Z 21012KT 16/00 A3001 RMK A01 T01640001  RH  033%=      5-min Rain = 0
KAI1 150541Z 21011KT 17/00 A3001 RMK A01 T01650001  RH  033%=      5-min Rain = 0
KAI1 150542Z 21011KT 17/00 A3001 RMK A01 T01660001  RH  033%=      5-min Rain = 0
KAI1 150543Z 21011KT 17/00 A3001 RMK A01 T01660002  RH  033%=      5-min Rain = 0
KAI1 150544Z 21011KT 17/00 A3001 RMK A01 T01650001  RH  033%=      5-min Rain = 0
KAI1 150545Z 21012KT 17/00 A3001 RMK A01 T01650001  RH  033%=      5-min Rain = 0
KAI1 150546Z 22012KT 17/00 A3001 RMK A01 T01660001  RH  033%=      5-min Rain = 0
KAI1 150547Z 21011KT 17/00 A3001 RMK A01 T01670001  RH  032%=      5-min Rain = 0
KAI1 150548Z 21013KT 17/00 A3001 RMK A01 T01680002  RH  032%=      5-min Rain = 0
KAI1 150549Z 21013KT 17/00 A3001 RMK A01 T01680002  RH  032%=      5-min Rain = 0
KAI1 150550Z 22012KT 17/00 A3001 RMK A01 T01700002  RH  032%=      5-min Rain = 0
KAI1 150551Z 22012KT 17/00 A3001 RMK A01 T01700002  RH  032%=      5-min Rain = 0
KAI1 150552Z 22013KT 17/00 A3001 RMK A01 T01700002  RH  032%=      5-min Rain = 0
KAI1 150553Z 22012KT 17/00 A3001 RMK A01 T01700003  RH  032%=      5-min Rain = 0
KAI1 150554Z 22012KT 17/00 A3001 RMK A01 T01690002  RH  032%=      5-min Rain = 0
KAI1 150555Z 22013KT 17/00 A3001 RMK A01 T01690003  RH  032%=      5-min Rain = 0
KAI1 150556Z 22012KT 17/00 A3001 RMK A01 T01690002  RH  032%=      5-min Rain = 0
KAI1 150557Z 22012KT 17/00 A3001 RMK A01 T01680002  RH  032%=      5-min Rain = 0
KAI1 150558Z 22011KT 17/00 A3001 RMK A01 T01670002  RH  033%=      5-min Rain = 0
KAI1 150559Z 22011KT 17/00 A3001 RMK A01 T01670002  RH  033%=      5-min Rain = 0

Page generated in 0.0716 seconds.